<?xml version="1.0" encoding="UTF-8" standalone="no" ?><gpx xmlns="http://www.topografix.com/GPX/1/1" xmlns:gpxx="http://www.garmin.com/xmlschemas/GpxExtensions/v3" xmlns:gpxtrkx="http://www.garmin.com/xmlschemas/TrackStatsExtension/v1" xmlns:wptx1="http://www.garmin.com/xmlschemas/WaypointExtension/v1" xmlns:gpxtpx="http://www.garmin.com/xmlschemas/TrackPointExtension/v1" creator="GPSMAP 64st" version="1.1" xmlns:xsi="http://www.w3.org/2001/XMLSchema-instance" xsi:schemaLocation="http://www.topografix.com/GPX/1/1 http://www.topografix.com/GPX/1/1/gpx.xsd http://www.garmin.com/xmlschemas/GpxExtensions/v3 http://www8.garmin.com/xmlschemas/GpxExtensionsv3.xsd http://www.garmin.com/xmlschemas/TrackStatsExtension/v1 http://www8.garmin.com/xmlschemas/TrackStatsExtension.xsd http://www.garmin.com/xmlschemas/WaypointExtension/v1 http://www8.garmin.com/xmlschemas/WaypointExtensionv1.xsd http://www.garmin.com/xmlschemas/TrackPointExtension/v1 http://www.garmin.com/xmlschemas/TrackPointExtensionv1.xsd"><metadata><link href="http://www.garmin.com"><text>Garmin International</text></link><time>2026-08-23T18:15:19Z</time></metadata>
<trk><name>2026-08-23 Монахов Резник</name>
<trkseg><trkpt lat="59.3511020020" lon="34.7020987049"><ele>172.77</ele><time>2026-08-23T04:35:31Z</time></trkpt><trkpt lat="59.3510883395" lon="34.7021011356"><ele>173.94</ele><time>2026-08-23T04:35:49Z</time></trkpt><trkpt lat="59.3510580808" lon="34.7021107748"><ele>163.69</ele><time>2026-08-23T04:36:42Z</time></trkpt><trkpt lat="59.3510740064" lon="34.7020731401"><ele>165.02</ele><time>2026-08-23T04:36:55Z</time></trkpt><trkpt lat="59.3510558177" lon="34.7020361759"><ele>166.66</ele><time>2026-08-23T04:37:10Z</time></trkpt><trkpt lat="59.3510601763" lon="34.7020351700"><ele>167.22</ele><time>2026-08-23T04:37:20Z</time></trkpt><trkpt lat="59.3510496151" lon="34.7020373493"><ele>167.93</ele><time>2026-08-23T04:37:35Z</time></trkpt><trkpt lat="59.3510548957" lon="34.7020071745"><ele>168.42</ele><time>2026-08-23T04:37:56Z</time></trkpt><trkpt lat="59.3510583322" lon="34.7020484973"><ele>168.59</ele><time>2026-08-23T04:38:13Z</time></trkpt><trkpt lat="59.3510680553" lon="34.7020914126"><ele>167.87</ele><time>2026-08-23T04:38:48Z</time></trkpt><trkpt lat="59.3510740902" lon="34.7020600643"><ele>167.91</ele><time>2026-08-23T04:39:08Z</time></trkpt><trkpt lat="59.3510739226" lon="34.7020537779"><ele>167.77</ele><time>2026-08-23T04:39:32Z</time></trkpt><trkpt lat="59.3510538060" lon="34.7020558733"><ele>167.96</ele><time>2026-08-23T04:39:46Z</time></trkpt><trkpt lat="59.3510590866" lon="34.7020629980"><ele>167.70</ele><time>2026-08-23T04:40:04Z</time></trkpt><trkpt lat="59.3510691449" lon="34.7020485811"><ele>166.53</ele><time>2026-08-23T04:40:30Z</time></trkpt><trkpt lat="59.3510537222" lon="34.7020296380"><ele>166.28</ele><time>2026-08-23T04:40:33Z</time></trkpt><trkpt lat="59.3510338571" lon="34.7019131295"><ele>166.26</ele><time>2026-08-23T04:40:40Z</time></trkpt><trkpt lat="59.3510357849" lon="34.7016638517"><ele>165.56</ele><time>2026-08-23T04:40:52Z</time></trkpt><trkpt lat="59.3510166742" lon="34.7013234627"><ele>166.19</ele><time>2026-08-23T04:41:07Z</time></trkpt><trkpt lat="59.3509553187" lon="34.7010598518"><ele>168.08</ele><time>2026-08-23T04:41:19Z</time></trkpt><trkpt lat="59.3509130739" lon="34.7007389925"><ele>168.02</ele><time>2026-08-23T04:41:34Z</time></trkpt><trkpt lat="59.3508729246" lon="34.7004896309"><ele>167.51</ele><time>2026-08-23T04:41:45Z</time></trkpt><trkpt lat="59.3508326914" lon="34.7003083304"><ele>166.47</ele><time>2026-08-23T04:41:53Z</time></trkpt><trkpt lat="59.3507586792" lon="34.6999555361"><ele>164.97</ele><time>2026-08-23T04:42:09Z</time></trkpt><trkpt lat="59.3506898638" lon="34.6997036599"><ele>164.23</ele><time>2026-08-23T04:42:22Z</time></trkpt><trkpt lat="59.3506275024" lon="34.6995053440"><ele>164.26</ele><time>2026-08-23T04:42:36Z</time></trkpt><trkpt lat="59.3505968247" lon="34.6993220318"><ele>164.49</ele><time>2026-08-23T04:42:48Z</time></trkpt><trkpt lat="59.3505876046" lon="34.6992672980"><ele>164.38</ele><time>2026-08-23T04:42:51Z</time></trkpt><trkpt lat="59.3505643867" lon="34.6990762744"><ele>164.40</ele><time>2026-08-23T04:43:00Z</time></trkpt><trkpt lat="59.3505658116" lon="34.6990087163"><ele>164.26</ele><time>2026-08-23T04:43:03Z</time></trkpt><trkpt lat="59.3505144306" lon="34.6987421717"><ele>162.38</ele><time>2026-08-23T04:43:16Z</time></trkpt><trkpt lat="59.3505029473" lon="34.6986510605"><ele>161.84</ele><time>2026-08-23T04:43:20Z</time></trkpt><trkpt lat="59.3505098205" lon="34.6986002661"><ele>162.10</ele><time>2026-08-23T04:43:22Z</time></trkpt><trkpt lat="59.3504244927" lon="34.6981719509"><ele>161.83</ele><time>2026-08-23T04:43:39Z</time></trkpt><trkpt lat="59.3503861036" lon="34.6978620719"><ele>162.41</ele><time>2026-08-23T04:43:53Z</time></trkpt><trkpt lat="59.3503521569" lon="34.6975870617"><ele>160.38</ele><time>2026-08-23T04:44:05Z</time></trkpt><trkpt lat="59.3503268436" lon="34.6973807830"><ele>158.63</ele><time>2026-08-23T04:44:14Z</time></trkpt><trkpt lat="59.3502923939" lon="34.6971911844"><ele>157.72</ele><time>2026-08-23T04:44:24Z</time></trkpt><trkpt lat="59.3503169529" lon="34.6972282324"><ele>158.06</ele><time>2026-08-23T04:44:28Z</time></trkpt><trkpt lat="59.3503404222" lon="34.6972651128"><ele>158.40</ele><time>2026-08-23T04:44:31Z</time></trkpt><trkpt lat="59.3503689207" lon="34.6972615924"><ele>158.45</ele><time>2026-08-23T04:44:35Z</time></trkpt><trkpt lat="59.3504640553" lon="34.6972744167"><ele>156.95</ele><time>2026-08-23T04:44:46Z</time></trkpt><trkpt lat="59.3504685815" lon="34.6972394641"><ele>158.06</ele><time>2026-08-23T04:44:53Z</time></trkpt><trkpt lat="59.3503900431" lon="34.6972263046"><ele>155.91</ele><time>2026-08-23T04:45:05Z</time></trkpt><trkpt lat="59.3503805716" lon="34.6972186770"><ele>155.30</ele><time>2026-08-23T04:45:07Z</time></trkpt><trkpt lat="59.3503541686" lon="34.6971808746"><ele>154.76</ele><time>2026-08-23T04:45:09Z</time></trkpt><trkpt lat="59.3503402546" lon="34.6971553937"><ele>154.48</ele><time>2026-08-23T04:45:10Z</time></trkpt><trkpt lat="59.3503239099" lon="34.6971521247"><ele>154.88</ele><time>2026-08-23T04:45:11Z</time></trkpt><trkpt lat="59.3503119238" lon="34.6971397195"><ele>154.72</ele><time>2026-08-23T04:45:12Z</time></trkpt><trkpt lat="59.3503022008" lon="34.6971218660"><ele>154.53</ele><time>2026-08-23T04:45:13Z</time></trkpt><trkpt lat="59.3502941541" lon="34.6971016657"><ele>154.39</ele><time>2026-08-23T04:45:14Z</time></trkpt><trkpt lat="59.3502070662" lon="34.6967937145"><ele>153.45</ele><time>2026-08-23T04:45:28Z</time></trkpt><trkpt lat="59.3501640670" lon="34.6966707520"><ele>153.41</ele><time>2026-08-23T04:45:38Z</time></trkpt><trkpt lat="59.3501586188" lon="34.6966520604"><ele>153.51</ele><time>2026-08-23T04:45:39Z</time></trkpt><trkpt lat="59.3501536734" lon="34.6966306027"><ele>153.41</ele><time>2026-08-23T04:45:40Z</time></trkpt><trkpt lat="59.3501467165" lon="34.6966098156"><ele>153.46</ele><time>2026-08-23T04:45:41Z</time></trkpt><trkpt lat="59.3501409329" lon="34.6965876035"><ele>153.51</ele><time>2026-08-23T04:45:42Z</time></trkpt><trkpt lat="59.3501348142" lon="34.6965645533"><ele>153.51</ele><time>2026-08-23T04:45:43Z</time></trkpt><trkpt lat="59.3501279410" lon="34.6965426765"><ele>153.46</ele><time>2026-08-23T04:45:44Z</time></trkpt><trkpt lat="59.3500447925" lon="34.6962031256"><ele>151.50</ele><time>2026-08-23T04:45:59Z</time></trkpt><trkpt lat="59.3500104267" lon="34.6958375908"><ele>152.02</ele><time>2026-08-23T04:46:14Z</time></trkpt><trkpt lat="59.3500100076" lon="34.6954751574"><ele>152.48</ele><time>2026-08-23T04:46:28Z</time></trkpt><trkpt lat="59.3499774858" lon="34.6950368676"><ele>152.69</ele><time>2026-08-23T04:46:45Z</time></trkpt><trkpt lat="59.3499574531" lon="34.6946458519"><ele>152.09</ele><time>2026-08-23T04:47:01Z</time></trkpt><trkpt lat="59.3499329779" lon="34.6942775510"><ele>152.56</ele><time>2026-08-23T04:47:16Z</time></trkpt><trkpt lat="59.3499047309" lon="34.6938819252"><ele>152.50</ele><time>2026-08-23T04:47:31Z</time></trkpt><trkpt lat="59.3498531822" lon="34.6934458148"><ele>152.85</ele><time>2026-08-23T04:47:48Z</time></trkpt><trkpt lat="59.3498115242" lon="34.6930278931"><ele>152.98</ele><time>2026-08-23T04:48:05Z</time></trkpt><trkpt lat="59.3497805111" lon="34.6926564071"><ele>153.78</ele><time>2026-08-23T04:48:20Z</time></trkpt><trkpt lat="59.3497735541" lon="34.6923650522"><ele>154.59</ele><time>2026-08-23T04:48:32Z</time></trkpt><trkpt lat="59.3497782480" lon="34.6918646526"><ele>153.51</ele><time>2026-08-23T04:48:51Z</time></trkpt><trkpt lat="59.3497441337" lon="34.6913902368"><ele>153.28</ele><time>2026-08-23T04:49:09Z</time></trkpt><trkpt lat="59.3497178145" lon="34.6910006460"><ele>155.12</ele><time>2026-08-23T04:49:25Z</time></trkpt><trkpt lat="59.3496562075" lon="34.6905937884"><ele>156.34</ele><time>2026-08-23T04:49:42Z</time></trkpt><trkpt lat="59.3495572172" lon="34.6902573388"><ele>156.03</ele><time>2026-08-23T04:49:57Z</time></trkpt><trkpt lat="59.3494861387" lon="34.6900275908"><ele>155.29</ele><time>2026-08-23T04:50:09Z</time></trkpt><trkpt lat="59.3494295608" lon="34.6896994393"><ele>155.64</ele><time>2026-08-23T04:50:23Z</time></trkpt><trkpt lat="59.3493998051" lon="34.6894149575"><ele>156.33</ele><time>2026-08-23T04:50:35Z</time></trkpt><trkpt lat="59.3493571412" lon="34.6890540328"><ele>156.50</ele><time>2026-08-23T04:50:49Z</time></trkpt><trkpt lat="59.3493008986" lon="34.6886545513"><ele>158.42</ele><time>2026-08-23T04:51:05Z</time></trkpt><trkpt lat="59.3492918462" lon="34.6883030981"><ele>161.81</ele><time>2026-08-23T04:51:19Z</time></trkpt><trkpt lat="59.3492936902" lon="34.6879795566"><ele>162.56</ele><time>2026-08-23T04:51:31Z</time></trkpt><trkpt lat="59.3492780998" lon="34.6875310410"><ele>161.93</ele><time>2026-08-23T04:51:48Z</time></trkpt><trkpt lat="59.3492747471" lon="34.6874851082"><ele>162.13</ele><time>2026-08-23T04:51:50Z</time></trkpt><trkpt lat="59.3492688797" lon="34.6873733774"><ele>162.58</ele><time>2026-08-23T04:51:56Z</time></trkpt><trkpt lat="59.3492680416" lon="34.6873509977"><ele>162.74</ele><time>2026-08-23T04:51:57Z</time></trkpt><trkpt lat="59.3492626771" lon="34.6872764826"><ele>162.92</ele><time>2026-08-23T04:52:00Z</time></trkpt><trkpt lat="59.3492486794" lon="34.6872069966"><ele>163.17</ele><time>2026-08-23T04:52:03Z</time></trkpt><trkpt lat="59.3492500205" lon="34.6871844493"><ele>163.22</ele><time>2026-08-23T04:52:04Z</time></trkpt><trkpt lat="59.3492480088" lon="34.6871619858"><ele>163.27</ele><time>2026-08-23T04:52:05Z</time></trkpt><trkpt lat="59.3492339272" lon="34.6870472375"><ele>163.33</ele><time>2026-08-23T04:52:12Z</time></trkpt><trkpt lat="59.3492418900" lon="34.6869315673"><ele>163.28</ele><time>2026-08-23T04:52:18Z</time></trkpt><trkpt lat="59.3492387887" lon="34.6868714690"><ele>163.33</ele><time>2026-08-23T04:52:20Z</time></trkpt><trkpt lat="59.3492339272" lon="34.6866864804"><ele>163.92</ele><time>2026-08-23T04:52:25Z</time></trkpt><trkpt lat="59.3492309097" lon="34.6866566408"><ele>164.04</ele><time>2026-08-23T04:52:26Z</time></trkpt><trkpt lat="59.3492315803" lon="34.6866270527"><ele>164.16</ele><time>2026-08-23T04:52:27Z</time></trkpt><trkpt lat="59.3492288981" lon="34.6864159964"><ele>165.50</ele><time>2026-08-23T04:52:37Z</time></trkpt><trkpt lat="59.3492351845" lon="34.6865353547"><ele>166.54</ele><time>2026-08-23T04:52:47Z</time></trkpt><trkpt lat="59.3492356036" lon="34.6865617577"><ele>166.42</ele><time>2026-08-23T04:52:48Z</time></trkpt><trkpt lat="59.3492369447" lon="34.6865853947"><ele>166.31</ele><time>2026-08-23T04:52:49Z</time></trkpt><trkpt lat="59.3492704723" lon="34.6868555434"><ele>162.34</ele><time>2026-08-23T04:53:02Z</time></trkpt><trkpt lat="59.3492837995" lon="34.6870057471"><ele>160.38</ele><time>2026-08-23T04:53:12Z</time></trkpt><trkpt lat="59.3492954504" lon="34.6873672586"><ele>157.11</ele><time>2026-08-23T04:53:25Z</time></trkpt><trkpt lat="59.3492899183" lon="34.6877369005"><ele>156.37</ele><time>2026-08-23T04:53:37Z</time></trkpt><trkpt lat="59.3492865656" lon="34.6879705042"><ele>155.98</ele><time>2026-08-23T04:53:45Z</time></trkpt><trkpt lat="59.3492797762" lon="34.6879933868"><ele>155.82</ele><time>2026-08-23T04:53:46Z</time></trkpt><trkpt lat="59.3492716458" lon="34.6880145092"><ele>155.65</ele><time>2026-08-23T04:53:47Z</time></trkpt><trkpt lat="59.3492222764" lon="34.6881015133"><ele>155.47</ele><time>2026-08-23T04:53:52Z</time></trkpt><trkpt lat="59.3490811251" lon="34.6883414872"><ele>156.94</ele><time>2026-08-23T04:54:06Z</time></trkpt><trkpt lat="59.3490675464" lon="34.6883479413"><ele>157.16</ele><time>2026-08-23T04:54:07Z</time></trkpt><trkpt lat="59.3489821348" lon="34.6882891841"><ele>157.67</ele><time>2026-08-23T04:54:14Z</time></trkpt><trkpt lat="59.3488671351" lon="34.6881970670"><ele>156.18</ele><time>2026-08-23T04:54:27Z</time></trkpt><trkpt lat="59.3487738445" lon="34.6881387290"><ele>156.19</ele><time>2026-08-23T04:54:39Z</time></trkpt><trkpt lat="59.3487005029" lon="34.6880858392"><ele>155.55</ele><time>2026-08-23T04:54:54Z</time></trkpt><trkpt lat="59.3486707471" lon="34.6880746074"><ele>155.59</ele><time>2026-08-23T04:54:56Z</time></trkpt><trkpt lat="59.3486321904" lon="34.6880503837"><ele>155.39</ele><time>2026-08-23T04:54:59Z</time></trkpt><trkpt lat="59.3484805617" lon="34.6879411675"><ele>153.50</ele><time>2026-08-23T04:55:12Z</time></trkpt><trkpt lat="59.3484322820" lon="34.6879161056"><ele>153.09</ele><time>2026-08-23T04:55:18Z</time></trkpt><trkpt lat="59.3483501393" lon="34.6878616232"><ele>152.69</ele><time>2026-08-23T04:55:25Z</time></trkpt><trkpt lat="59.3482018635" lon="34.6877211425"><ele>151.71</ele><time>2026-08-23T04:55:38Z</time></trkpt><trkpt lat="59.3480660766" lon="34.6876471303"><ele>150.97</ele><time>2026-08-23T04:55:52Z</time></trkpt><trkpt lat="59.3479009531" lon="34.6875827573"><ele>150.66</ele><time>2026-08-23T04:56:06Z</time></trkpt><trkpt lat="59.3477722909" lon="34.6875556000"><ele>150.98</ele><time>2026-08-23T04:56:17Z</time></trkpt><trkpt lat="59.3476037309" lon="34.6874814201"><ele>148.77</ele><time>2026-08-23T04:56:31Z</time></trkpt><trkpt lat="59.3475215882" lon="34.6874483954"><ele>145.99</ele><time>2026-08-23T04:56:40Z</time></trkpt><trkpt lat="59.3474531081" lon="34.6874085814"><ele>144.11</ele><time>2026-08-23T04:56:47Z</time></trkpt><trkpt lat="59.3473010603" lon="34.6873029694"><ele>143.21</ele><time>2026-08-23T04:57:00Z</time></trkpt><trkpt lat="59.3471618369" lon="34.6872468106"><ele>144.22</ele><time>2026-08-23T04:57:14Z</time></trkpt><trkpt lat="59.3470395450" lon="34.6871934179"><ele>144.23</ele><time>2026-08-23T04:57:27Z</time></trkpt><trkpt lat="59.3469895888" lon="34.6871810965"><ele>142.94</ele><time>2026-08-23T04:57:33Z</time></trkpt><trkpt lat="59.3469570670" lon="34.6871522628"><ele>142.21</ele><time>2026-08-23T04:57:36Z</time></trkpt><trkpt lat="59.3468259741" lon="34.6871043183"><ele>136.64</ele><time>2026-08-23T04:57:49Z</time></trkpt><trkpt lat="59.3467883393" lon="34.6870660130"><ele>132.60</ele><time>2026-08-23T04:57:56Z</time></trkpt><trkpt lat="59.3467622716" lon="34.6870588884"><ele>130.74</ele><time>2026-08-23T04:58:00Z</time></trkpt><trkpt lat="59.3466751836" lon="34.6870045736"><ele>130.81</ele><time>2026-08-23T04:58:07Z</time></trkpt><trkpt lat="59.3465676438" lon="34.6869771648"><ele>130.79</ele><time>2026-08-23T04:58:15Z</time></trkpt><trkpt lat="59.3465380557" lon="34.6869715489"><ele>130.50</ele><time>2026-08-23T04:58:18Z</time></trkpt><trkpt lat="59.3463822361" lon="34.6869253647"><ele>134.39</ele><time>2026-08-23T04:58:31Z</time></trkpt><trkpt lat="59.3463021051" lon="34.6869825292"><ele>133.51</ele><time>2026-08-23T04:58:40Z</time></trkpt><trkpt lat="59.3461669888" lon="34.6870583016"><ele>134.44</ele><time>2026-08-23T04:58:54Z</time></trkpt><trkpt lat="59.3460820802" lon="34.6870912425"><ele>134.57</ele><time>2026-08-23T04:59:00Z</time></trkpt><trkpt lat="59.3459172081" lon="34.6870989539"><ele>136.58</ele><time>2026-08-23T04:59:12Z</time></trkpt><trkpt lat="59.3458222412" lon="34.6870802622"><ele>136.82</ele><time>2026-08-23T04:59:23Z</time></trkpt><trkpt lat="59.3457941618" lon="34.6870765742"><ele>136.59</ele><time>2026-08-23T04:59:27Z</time></trkpt><trkpt lat="59.3457033858" lon="34.6870480757"><ele>138.57</ele><time>2026-08-23T04:59:38Z</time></trkpt><trkpt lat="59.3456502445" lon="34.6871675178"><ele>139.92</ele><time>2026-08-23T04:59:47Z</time></trkpt><trkpt lat="59.3455357477" lon="34.6872981917"><ele>137.41</ele><time>2026-08-23T05:00:00Z</time></trkpt><trkpt lat="59.3453991227" lon="34.6873364132"><ele>134.64</ele><time>2026-08-23T05:00:14Z</time></trkpt><trkpt lat="59.3453707919" lon="34.6873432025"><ele>134.76</ele><time>2026-08-23T05:00:16Z</time></trkpt><trkpt lat="59.3452867214" lon="34.6873787418"><ele>134.46</ele><time>2026-08-23T05:00:21Z</time></trkpt><trkpt lat="59.3451830372" lon="34.6874682605"><ele>131.86</ele><time>2026-08-23T05:00:32Z</time></trkpt><trkpt lat="59.3451490067" lon="34.6874679253"><ele>137.63</ele><time>2026-08-23T05:00:52Z</time></trkpt><trkpt lat="59.3451160658" lon="34.6873572003"><ele>141.41</ele><time>2026-08-23T05:01:03Z</time></trkpt><trkpt lat="59.3450638466" lon="34.6872426197"><ele>146.78</ele><time>2026-08-23T05:01:15Z</time></trkpt><trkpt lat="59.3450461607" lon="34.6872173902"><ele>148.05</ele><time>2026-08-23T05:01:19Z</time></trkpt><trkpt lat="59.3450199254" lon="34.6871580463"><ele>148.96</ele><time>2026-08-23T05:01:23Z</time></trkpt><trkpt lat="59.3449683767" lon="34.6869433858"><ele>151.75</ele><time>2026-08-23T05:01:37Z</time></trkpt><trkpt lat="59.3449719809" lon="34.6867883205"><ele>151.47</ele><time>2026-08-23T05:01:45Z</time></trkpt><trkpt lat="59.3449402973" lon="34.6866155695"><ele>151.65</ele><time>2026-08-23T05:01:52Z</time></trkpt><trkpt lat="59.3448910955" lon="34.6863336861"><ele>151.44</ele><time>2026-08-23T05:02:03Z</time></trkpt><trkpt lat="59.3448850606" lon="34.6863144916"><ele>151.40</ele><time>2026-08-23T05:02:04Z</time></trkpt><trkpt lat="59.3448501080" lon="34.6861357056"><ele>152.34</ele><time>2026-08-23T05:02:15Z</time></trkpt><trkpt lat="59.3448727392" lon="34.6859026887"><ele>152.69</ele><time>2026-08-23T05:02:27Z</time></trkpt><trkpt lat="59.3448570650" lon="34.6858036146"><ele>151.98</ele><time>2026-08-23T05:02:30Z</time></trkpt><trkpt lat="59.3448736612" lon="34.6856211405"><ele>156.16</ele><time>2026-08-23T05:02:43Z</time></trkpt><trkpt lat="59.3449402973" lon="34.6853504889"><ele>156.49</ele><time>2026-08-23T05:02:57Z</time></trkpt><trkpt lat="59.3449677899" lon="34.6851924900"><ele>156.15</ele><time>2026-08-23T05:03:03Z</time></trkpt><trkpt lat="59.3450376950" lon="34.6848784201"><ele>155.40</ele><time>2026-08-23T05:03:15Z</time></trkpt><trkpt lat="59.3450738210" lon="34.6846798528"><ele>153.15</ele><time>2026-08-23T05:03:24Z</time></trkpt><trkpt lat="59.3451055046" lon="34.6845288109"><ele>151.55</ele><time>2026-08-23T05:03:30Z</time></trkpt><trkpt lat="59.3451335002" lon="34.6844095364"><ele>150.87</ele><time>2026-08-23T05:03:35Z</time></trkpt><trkpt lat="59.3451742362" lon="34.6842415631"><ele>155.27</ele><time>2026-08-23T05:03:49Z</time></trkpt><trkpt lat="59.3452552054" lon="34.6840532217"><ele>155.85</ele><time>2026-08-23T05:03:58Z</time></trkpt><trkpt lat="59.3453737255" lon="34.6837989986"><ele>156.96</ele><time>2026-08-23T05:04:12Z</time></trkpt><trkpt lat="59.3454841152" lon="34.6835741960"><ele>158.08</ele><time>2026-08-23T05:04:24Z</time></trkpt><trkpt lat="59.3455785792" lon="34.6833555121"><ele>157.72</ele><time>2026-08-23T05:04:37Z</time></trkpt><trkpt lat="59.3456808385" lon="34.6831909753"><ele>156.51</ele><time>2026-08-23T05:04:47Z</time></trkpt><trkpt lat="59.3457100913" lon="34.6831643209"><ele>156.28</ele><time>2026-08-23T05:04:49Z</time></trkpt><trkpt lat="59.3458334729" lon="34.6829886362"><ele>154.99</ele><time>2026-08-23T05:05:01Z</time></trkpt><trkpt lat="59.3459388334" lon="34.6828645002"><ele>152.90</ele><time>2026-08-23T05:05:12Z</time></trkpt><trkpt lat="59.3460674956" lon="34.6826474927"><ele>153.84</ele><time>2026-08-23T05:05:25Z</time></trkpt><trkpt lat="59.3461188767" lon="34.6826806013"><ele>156.26</ele><time>2026-08-23T05:05:35Z</time></trkpt><trkpt lat="59.3461517338" lon="34.6827549487"><ele>157.52</ele><time>2026-08-23T05:05:43Z</time></trkpt><trkpt lat="59.3462116644" lon="34.6828802582"><ele>158.00</ele><time>2026-08-23T05:05:55Z</time></trkpt><trkpt lat="59.3462006841" lon="34.6828188188"><ele>157.47</ele><time>2026-08-23T05:06:05Z</time></trkpt><trkpt lat="59.3461995106" lon="34.6828017198"><ele>157.46</ele><time>2026-08-23T05:06:06Z</time></trkpt><trkpt lat="59.3461503927" lon="34.6825810242"><ele>159.05</ele><time>2026-08-23T05:06:18Z</time></trkpt><trkpt lat="59.3461594451" lon="34.6825259551"><ele>158.61</ele><time>2026-08-23T05:06:21Z</time></trkpt><trkpt lat="59.3461902067" lon="34.6822483465"><ele>158.64</ele><time>2026-08-23T05:06:33Z</time></trkpt><trkpt lat="59.3461699225" lon="34.6820470132"><ele>157.45</ele><time>2026-08-23T05:06:44Z</time></trkpt><trkpt lat="59.3461599480" lon="34.6820160840"><ele>157.92</ele><time>2026-08-23T05:06:52Z</time></trkpt><trkpt lat="59.3461335450" lon="34.6819615178"><ele>157.82</ele><time>2026-08-23T05:06:56Z</time></trkpt><trkpt lat="59.3460205570" lon="34.6816981584"><ele>158.43</ele><time>2026-08-23T05:07:10Z</time></trkpt><trkpt lat="59.3459456228" lon="34.6814393252"><ele>159.44</ele><time>2026-08-23T05:07:25Z</time></trkpt><trkpt lat="59.3459415995" lon="34.6814202145"><ele>160.75</ele><time>2026-08-23T05:07:32Z</time></trkpt><trkpt lat="59.3458408490" lon="34.6811656561"><ele>161.59</ele><time>2026-08-23T05:07:46Z</time></trkpt><trkpt lat="59.3458453752" lon="34.6810269356"><ele>161.27</ele><time>2026-08-23T05:07:55Z</time></trkpt><trkpt lat="59.3457943294" lon="34.6807816811"><ele>162.33</ele><time>2026-08-23T05:08:07Z</time></trkpt><trkpt lat="59.3457730394" lon="34.6805792581"><ele>161.76</ele><time>2026-08-23T05:08:18Z</time></trkpt><trkpt lat="59.3457706086" lon="34.6804724727"><ele>161.55</ele><time>2026-08-23T05:08:22Z</time></trkpt><trkpt lat="59.3457639031" lon="34.6801683772"><ele>161.57</ele><time>2026-08-23T05:08:35Z</time></trkpt><trkpt lat="59.3457386736" lon="34.6800584067"><ele>162.41</ele><time>2026-08-23T05:08:42Z</time></trkpt><trkpt lat="59.3456913996" lon="34.6797464322"><ele>162.58</ele><time>2026-08-23T05:08:56Z</time></trkpt><trkpt lat="59.3456754740" lon="34.6796542313"><ele>161.29</ele><time>2026-08-23T05:09:04Z</time></trkpt><trkpt lat="59.3456567824" lon="34.6795249823"><ele>160.01</ele><time>2026-08-23T05:09:10Z</time></trkpt><trkpt lat="59.3456580397" lon="34.6793498006"><ele>157.96</ele><time>2026-08-23T05:09:18Z</time></trkpt><trkpt lat="59.3456644099" lon="34.6792526543"><ele>156.22</ele><time>2026-08-23T05:09:24Z</time></trkpt><trkpt lat="59.3456808385" lon="34.6790390834"><ele>153.53</ele><time>2026-08-23T05:09:31Z</time></trkpt><trkpt lat="59.3456681818" lon="34.6789254248"><ele>151.66</ele><time>2026-08-23T05:09:35Z</time></trkpt><trkpt lat="59.3456577882" lon="34.6788460482"><ele>149.99</ele><time>2026-08-23T05:09:39Z</time></trkpt><trkpt lat="59.3456749711" lon="34.6785456408"><ele>147.63</ele><time>2026-08-23T05:09:51Z</time></trkpt><trkpt lat="59.3456892204" lon="34.6782228537"><ele>144.80</ele><time>2026-08-23T05:10:03Z</time></trkpt><trkpt lat="59.3457121029" lon="34.6779988892"><ele>142.27</ele><time>2026-08-23T05:10:14Z</time></trkpt><trkpt lat="59.3457198981" lon="34.6779211890"><ele>141.78</ele><time>2026-08-23T05:10:17Z</time></trkpt><trkpt lat="59.3457514979" lon="34.6777741704"><ele>141.09</ele><time>2026-08-23T05:10:23Z</time></trkpt><trkpt lat="59.3457664177" lon="34.6775326878"><ele>142.46</ele><time>2026-08-23T05:10:34Z</time></trkpt><trkpt lat="59.3457701895" lon="34.6772453561"><ele>144.28</ele><time>2026-08-23T05:10:46Z</time></trkpt><trkpt lat="59.3457960058" lon="34.6770229004"><ele>147.24</ele><time>2026-08-23T05:10:55Z</time></trkpt><trkpt lat="59.3457772303" lon="34.6766677592"><ele>148.44</ele><time>2026-08-23T05:11:07Z</time></trkpt><trkpt lat="59.3457406014" lon="34.6764406934"><ele>150.06</ele><time>2026-08-23T05:11:16Z</time></trkpt><trkpt lat="59.3457081635" lon="34.6761476621"><ele>151.51</ele><time>2026-08-23T05:11:29Z</time></trkpt><trkpt lat="59.3456568662" lon="34.6759345103"><ele>151.44</ele><time>2026-08-23T05:11:40Z</time></trkpt><trkpt lat="59.3456649967" lon="34.6757397987"><ele>153.91</ele><time>2026-08-23T05:11:51Z</time></trkpt><trkpt lat="59.3456577882" lon="34.6757212747"><ele>154.05</ele><time>2026-08-23T05:11:52Z</time></trkpt><trkpt lat="59.3455697782" lon="34.6756020840"><ele>154.31</ele><time>2026-08-23T05:12:01Z</time></trkpt><trkpt lat="59.3454905692" lon="34.6755329333"><ele>153.10</ele><time>2026-08-23T05:12:08Z</time></trkpt><trkpt lat="59.3454265315" lon="34.6755380463"><ele>152.17</ele><time>2026-08-23T05:12:14Z</time></trkpt><trkpt lat="59.3453145493" lon="34.6754612681"><ele>146.11</ele><time>2026-08-23T05:12:28Z</time></trkpt><trkpt lat="59.3452321552" lon="34.6753074601"><ele>140.72</ele><time>2026-08-23T05:12:38Z</time></trkpt><trkpt lat="59.3451255374" lon="34.6750725992"><ele>140.01</ele><time>2026-08-23T05:12:51Z</time></trkpt><trkpt lat="59.3450965360" lon="34.6750545781"><ele>139.89</ele><time>2026-08-23T05:12:54Z</time></trkpt><trkpt lat="59.3449858949" lon="34.6749627125"><ele>134.84</ele><time>2026-08-23T05:13:07Z</time></trkpt><trkpt lat="59.3447905127" lon="34.6747720242"><ele>133.73</ele><time>2026-08-23T05:13:25Z</time></trkpt><trkpt lat="59.3447262235" lon="34.6746140253"><ele>133.65</ele><time>2026-08-23T05:13:34Z</time></trkpt><trkpt lat="59.3446576595" lon="34.6743798349"><ele>133.84</ele><time>2026-08-23T05:13:49Z</time></trkpt><trkpt lat="59.3445859943" lon="34.6741941758"><ele>133.94</ele><time>2026-08-23T05:14:04Z</time></trkpt><trkpt lat="59.3444928713" lon="34.6742256917"><ele>135.96</ele><time>2026-08-23T05:14:13Z</time></trkpt><trkpt lat="59.3444042746" lon="34.6740555391"><ele>139.86</ele><time>2026-08-23T05:14:25Z</time></trkpt><trkpt lat="59.3443068769" lon="34.6738389507"><ele>140.77</ele><time>2026-08-23T05:14:37Z</time></trkpt><trkpt lat="59.3442515563" lon="34.6736915968"><ele>142.56</ele><time>2026-08-23T05:14:48Z</time></trkpt><trkpt lat="59.3442094792" lon="34.6733898483"><ele>142.13</ele><time>2026-08-23T05:15:01Z</time></trkpt><trkpt lat="59.3442124967" lon="34.6733624395"><ele>142.25</ele><time>2026-08-23T05:15:02Z</time></trkpt><trkpt lat="59.3442010134" lon="34.6732577495"><ele>143.30</ele><time>2026-08-23T05:15:06Z</time></trkpt><trkpt lat="59.3441630434" lon="34.6729442663"><ele>146.39</ele><time>2026-08-23T05:15:18Z</time></trkpt><trkpt lat="59.3441569246" lon="34.6728896163"><ele>146.71</ele><time>2026-08-23T05:15:20Z</time></trkpt><trkpt lat="59.3441246543" lon="34.6727627143"><ele>147.61</ele><time>2026-08-23T05:15:26Z</time></trkpt><trkpt lat="59.3440809008" lon="34.6725650690"><ele>150.66</ele><time>2026-08-23T05:15:35Z</time></trkpt><trkpt lat="59.3440002669" lon="34.6723150369"><ele>152.04</ele><time>2026-08-23T05:15:49Z</time></trkpt><trkpt lat="59.3439296912" lon="34.6721182298"><ele>150.19</ele><time>2026-08-23T05:16:00Z</time></trkpt><trkpt lat="59.3438732810" lon="34.6718905773"><ele>148.78</ele><time>2026-08-23T05:16:13Z</time></trkpt><trkpt lat="59.3438674137" lon="34.6718228515"><ele>148.73</ele><time>2026-08-23T05:16:17Z</time></trkpt><trkpt lat="59.3438340537" lon="34.6715174150"><ele>148.22</ele><time>2026-08-23T05:16:33Z</time></trkpt><trkpt lat="59.3438200559" lon="34.6714425646"><ele>149.29</ele><time>2026-08-23T05:16:43Z</time></trkpt><trkpt lat="59.3437896296" lon="34.6713410597"><ele>151.32</ele><time>2026-08-23T05:16:59Z</time></trkpt><trkpt lat="59.3437779788" lon="34.6712570731"><ele>152.46</ele><time>2026-08-23T05:17:05Z</time></trkpt><trkpt lat="59.3437164556" lon="34.6709870920"><ele>154.44</ele><time>2026-08-23T05:17:20Z</time></trkpt><trkpt lat="59.3436603807" lon="34.6707729343"><ele>155.12</ele><time>2026-08-23T05:17:31Z</time></trkpt><trkpt lat="59.3435887992" lon="34.6705694217"><ele>155.58</ele><time>2026-08-23T05:17:43Z</time></trkpt><trkpt lat="59.3435250968" lon="34.6703982633"><ele>154.49</ele><time>2026-08-23T05:17:52Z</time></trkpt><trkpt lat="59.3434551079" lon="34.6702651586"><ele>152.43</ele><time>2026-08-23T05:18:03Z</time></trkpt><trkpt lat="59.3433079217" lon="34.6701348200"><ele>147.00</ele><time>2026-08-23T05:18:18Z</time></trkpt><trkpt lat="59.3432215881" lon="34.6699612308"><ele>144.61</ele><time>2026-08-23T05:18:30Z</time></trkpt><trkpt lat="59.3432071712" lon="34.6699235961"><ele>144.78</ele><time>2026-08-23T05:18:32Z</time></trkpt><trkpt lat="59.3431953527" lon="34.6698070038"><ele>145.42</ele><time>2026-08-23T05:18:37Z</time></trkpt><trkpt lat="59.3431600649" lon="34.6697095223"><ele>146.65</ele><time>2026-08-23T05:18:42Z</time></trkpt><trkpt lat="59.3430739827" lon="34.6694922633"><ele>151.27</ele><time>2026-08-23T05:18:54Z</time></trkpt><trkpt lat="59.3429837935" lon="34.6693142317"><ele>152.70</ele><time>2026-08-23T05:19:06Z</time></trkpt><trkpt lat="59.3428972084" lon="34.6691710688"><ele>151.15</ele><time>2026-08-23T05:19:18Z</time></trkpt><trkpt lat="59.3428003974" lon="34.6689953003"><ele>149.38</ele><time>2026-08-23T05:19:32Z</time></trkpt><trkpt lat="59.3427434005" lon="34.6688821446"><ele>148.47</ele><time>2026-08-23T05:19:45Z</time></trkpt><trkpt lat="59.3426817097" lon="34.6687292587"><ele>146.42</ele><time>2026-08-23T05:19:56Z</time></trkpt><trkpt lat="59.3425995670" lon="34.6685249917"><ele>143.04</ele><time>2026-08-23T05:20:10Z</time></trkpt><trkpt lat="59.3425267283" lon="34.6683263406"><ele>139.90</ele><time>2026-08-23T05:20:25Z</time></trkpt><trkpt lat="59.3424531352" lon="34.6682030428"><ele>137.41</ele><time>2026-08-23T05:20:38Z</time></trkpt><trkpt lat="59.3423976470" lon="34.6680509113"><ele>137.22</ele><time>2026-08-23T05:20:48Z</time></trkpt><trkpt lat="59.3423740938" lon="34.6679528430"><ele>144.13</ele><time>2026-08-23T05:20:59Z</time></trkpt><trkpt lat="59.3423199467" lon="34.6677274536"><ele>145.07</ele><time>2026-08-23T05:21:11Z</time></trkpt><trkpt lat="59.3423147500" lon="34.6677033976"><ele>144.91</ele><time>2026-08-23T05:21:12Z</time></trkpt><trkpt lat="59.3422595970" lon="34.6675924212"><ele>144.46</ele><time>2026-08-23T05:21:18Z</time></trkpt><trkpt lat="59.3421997502" lon="34.6673793532"><ele>147.48</ele><time>2026-08-23T05:21:29Z</time></trkpt><trkpt lat="59.3421951402" lon="34.6671896707"><ele>149.18</ele><time>2026-08-23T05:21:36Z</time></trkpt><trkpt lat="59.3421796337" lon="34.6669543907"><ele>148.61</ele><time>2026-08-23T05:21:48Z</time></trkpt><trkpt lat="59.3421643786" lon="34.6669153310"><ele>148.15</ele><time>2026-08-23T05:21:51Z</time></trkpt><trkpt lat="59.3420952279" lon="34.6666816436"><ele>150.60</ele><time>2026-08-23T05:22:03Z</time></trkpt><trkpt lat="59.3420349620" lon="34.6664609481"><ele>151.35</ele><time>2026-08-23T05:22:14Z</time></trkpt><trkpt lat="59.3419318646" lon="34.6662410069"><ele>152.37</ele><time>2026-08-23T05:22:27Z</time></trkpt><trkpt lat="59.3417898752" lon="34.6660756320"><ele>151.28</ele><time>2026-08-23T05:22:41Z</time></trkpt><trkpt lat="59.3417803198" lon="34.6660634782"><ele>151.09</ele><time>2026-08-23T05:22:42Z</time></trkpt><trkpt lat="59.3417078163" lon="34.6658659168"><ele>150.65</ele><time>2026-08-23T05:22:53Z</time></trkpt><trkpt lat="59.3416426051" lon="34.6656464785"><ele>151.42</ele><time>2026-08-23T05:23:06Z</time></trkpt><trkpt lat="59.3416101672" lon="34.6655468177"><ele>152.78</ele><time>2026-08-23T05:23:13Z</time></trkpt><trkpt lat="59.3415581994" lon="34.6653417964"><ele>154.78</ele><time>2026-08-23T05:23:24Z</time></trkpt><trkpt lat="59.3415444531" lon="34.6650596615"><ele>157.03</ele><time>2026-08-23T05:23:37Z</time></trkpt><trkpt lat="59.3414969277" lon="34.6649090387"><ele>157.30</ele><time>2026-08-23T05:23:46Z</time></trkpt><trkpt lat="59.3414472230" lon="34.6647935361"><ele>160.79</ele><time>2026-08-23T05:23:59Z</time></trkpt><trkpt lat="59.3414444569" lon="34.6647726651"><ele>160.85</ele><time>2026-08-23T05:24:00Z</time></trkpt><trkpt lat="59.3413635716" lon="34.6646186896"><ele>161.92</ele><time>2026-08-23T05:24:12Z</time></trkpt><trkpt lat="59.3413577881" lon="34.6646017581"><ele>161.90</ele><time>2026-08-23T05:24:13Z</time></trkpt><trkpt lat="59.3413192313" lon="34.6644675639"><ele>162.29</ele><time>2026-08-23T05:24:21Z</time></trkpt><trkpt lat="59.3412732985" lon="34.6642422583"><ele>163.16</ele><time>2026-08-23T05:24:32Z</time></trkpt><trkpt lat="59.3412729632" lon="34.6641754545"><ele>163.07</ele><time>2026-08-23T05:24:35Z</time></trkpt><trkpt lat="59.3412691075" lon="34.6640327945"><ele>163.66</ele><time>2026-08-23T05:24:41Z</time></trkpt><trkpt lat="59.3412917387" lon="34.6639149450"><ele>163.43</ele><time>2026-08-23T05:24:47Z</time></trkpt><trkpt lat="59.3413213268" lon="34.6636779886"><ele>162.77</ele><time>2026-08-23T05:24:58Z</time></trkpt><trkpt lat="59.3413453829" lon="34.6634140424"><ele>160.70</ele><time>2026-08-23T05:25:10Z</time></trkpt><trkpt lat="59.3413456343" lon="34.6631858870"><ele>160.35</ele><time>2026-08-23T05:25:21Z</time></trkpt><trkpt lat="59.3413296249" lon="34.6631126292"><ele>159.84</ele><time>2026-08-23T05:25:24Z</time></trkpt><trkpt lat="59.3413013779" lon="34.6628680453"><ele>159.17</ele><time>2026-08-23T05:25:36Z</time></trkpt><trkpt lat="59.3412712868" lon="34.6626336873"><ele>157.25</ele><time>2026-08-23T05:25:48Z</time></trkpt><trkpt lat="59.3412497453" lon="34.6625025105"><ele>156.82</ele><time>2026-08-23T05:25:56Z</time></trkpt><trkpt lat="59.3412094284" lon="34.6623145882"><ele>155.02</ele><time>2026-08-23T05:26:06Z</time></trkpt><trkpt lat="59.3412002083" lon="34.6622268297"><ele>153.91</ele><time>2026-08-23T05:26:16Z</time></trkpt><trkpt lat="59.3411326502" lon="34.6620499715"><ele>153.76</ele><time>2026-08-23T05:26:22Z</time></trkpt><trkpt lat="59.3410958536" lon="34.6618334670"><ele>156.37</ele><time>2026-08-23T05:26:31Z</time></trkpt><trkpt lat="59.3410871364" lon="34.6617799066"><ele>157.21</ele><time>2026-08-23T05:26:33Z</time></trkpt><trkpt lat="59.3410466518" lon="34.6615939122"><ele>159.52</ele><time>2026-08-23T05:26:42Z</time></trkpt><trkpt lat="59.3409780879" lon="34.6613618173"><ele>158.77</ele><time>2026-08-23T05:26:55Z</time></trkpt><trkpt lat="59.3409669399" lon="34.6613154653"><ele>158.49</ele><time>2026-08-23T05:26:58Z</time></trkpt><trkpt lat="59.3408946041" lon="34.6612021420"><ele>157.72</ele><time>2026-08-23T05:27:11Z</time></trkpt><trkpt lat="59.3407754134" lon="34.6611139644"><ele>152.44</ele><time>2026-08-23T05:27:24Z</time></trkpt><trkpt lat="59.3407657743" lon="34.6611094382"><ele>152.10</ele><time>2026-08-23T05:27:25Z</time></trkpt><trkpt lat="59.3406786025" lon="34.6609858051"><ele>150.25</ele><time>2026-08-23T05:27:37Z</time></trkpt><trkpt lat="59.3406489305" lon="34.6609080210"><ele>149.94</ele><time>2026-08-23T05:27:43Z</time></trkpt><trkpt lat="59.3406888284" lon="34.6607687976"><ele>148.65</ele><time>2026-08-23T05:27:54Z</time></trkpt><trkpt lat="59.3406925164" lon="34.6606682986"><ele>149.26</ele><time>2026-08-23T05:27:59Z</time></trkpt><trkpt lat="59.3405979685" lon="34.6604311746"><ele>152.36</ele><time>2026-08-23T05:28:13Z</time></trkpt><trkpt lat="59.3405399658" lon="34.6602786239"><ele>152.38</ele><time>2026-08-23T05:28:25Z</time></trkpt><trkpt lat="59.3404593319" lon="34.6601074655"><ele>152.14</ele><time>2026-08-23T05:28:38Z</time></trkpt><trkpt lat="59.3403644487" lon="34.6599218901"><ele>153.49</ele><time>2026-08-23T05:28:51Z</time></trkpt><trkpt lat="59.3402901012" lon="34.6598564275"><ele>151.54</ele><time>2026-08-23T05:29:02Z</time></trkpt><trkpt lat="59.3402061984" lon="34.6597669087"><ele>150.68</ele><time>2026-08-23T05:29:12Z</time></trkpt><trkpt lat="59.3401955534" lon="34.6597633045"><ele>150.60</ele><time>2026-08-23T05:29:13Z</time></trkpt><trkpt lat="59.3400902767" lon="34.6596445329"><ele>148.52</ele><time>2026-08-23T05:29:26Z</time></trkpt><trkpt lat="59.3400163483" lon="34.6594590414"><ele>145.71</ele><time>2026-08-23T05:29:38Z</time></trkpt><trkpt lat="59.3399201240" lon="34.6593732946"><ele>145.16</ele><time>2026-08-23T05:29:49Z</time></trkpt><trkpt lat="59.3398015201" lon="34.6592437942"><ele>144.89</ele><time>2026-08-23T05:30:05Z</time></trkpt><trkpt lat="59.3397232331" lon="34.6590552852"><ele>146.58</ele><time>2026-08-23T05:30:17Z</time></trkpt><trkpt lat="59.3396937288" lon="34.6587987151"><ele>147.13</ele><time>2026-08-23T05:30:34Z</time></trkpt><trkpt lat="59.3396108318" lon="34.6585545503"><ele>147.37</ele><time>2026-08-23T05:30:46Z</time></trkpt><trkpt lat="59.3396063056" lon="34.6582656261"><ele>151.85</ele><time>2026-08-23T05:30:58Z</time></trkpt><trkpt lat="59.3396038748" lon="34.6581201162"><ele>153.02</ele><time>2026-08-23T05:31:03Z</time></trkpt><trkpt lat="59.3396213092" lon="34.6580118220"><ele>154.52</ele><time>2026-08-23T05:31:08Z</time></trkpt><trkpt lat="59.3396181241" lon="34.6578290127"><ele>157.26</ele><time>2026-08-23T05:31:18Z</time></trkpt><trkpt lat="59.3396104965" lon="34.6575614624"><ele>157.25</ele><time>2026-08-23T05:31:32Z</time></trkpt><trkpt lat="59.3396170344" lon="34.6572854463"><ele>158.47</ele><time>2026-08-23T05:31:44Z</time></trkpt><trkpt lat="59.3396494724" lon="34.6571793314"><ele>158.22</ele><time>2026-08-23T05:31:52Z</time></trkpt><trkpt lat="59.3396493047" lon="34.6571635734"><ele>158.14</ele><time>2026-08-23T05:31:53Z</time></trkpt><trkpt lat="59.3396482151" lon="34.6571153775"><ele>158.07</ele><time>2026-08-23T05:31:56Z</time></trkpt><trkpt lat="59.3396532442" lon="34.6567655168"><ele>159.31</ele><time>2026-08-23T05:32:12Z</time></trkpt><trkpt lat="59.3396208063" lon="34.6564941946"><ele>162.09</ele><time>2026-08-23T05:32:22Z</time></trkpt><trkpt lat="59.3396034557" lon="34.6562917717"><ele>163.99</ele><time>2026-08-23T05:32:31Z</time></trkpt><trkpt lat="59.3396505620" lon="34.6560772788"><ele>166.75</ele><time>2026-08-23T05:32:45Z</time></trkpt><trkpt lat="59.3396594469" lon="34.6560755186"><ele>166.70</ele><time>2026-08-23T05:32:46Z</time></trkpt><trkpt lat="59.3397442717" lon="34.6560699027"><ele>167.27</ele><time>2026-08-23T05:32:57Z</time></trkpt><trkpt lat="59.3398451060" lon="34.6559274103"><ele>165.64</ele><time>2026-08-23T05:33:12Z</time></trkpt><trkpt lat="59.3399476167" lon="34.6557797212"><ele>165.83</ele><time>2026-08-23T05:33:27Z</time></trkpt><trkpt lat="59.3400560785" lon="34.6555721853"><ele>164.65</ele><time>2026-08-23T05:33:43Z</time></trkpt><trkpt lat="59.3400792964" lon="34.6555188764"><ele>164.72</ele><time>2026-08-23T05:33:47Z</time></trkpt><trkpt lat="59.3401372153" lon="34.6552530024"><ele>163.73</ele><time>2026-08-23T05:34:00Z</time></trkpt><trkpt lat="59.3401877582" lon="34.6551097557"><ele>161.89</ele><time>2026-08-23T05:34:12Z</time></trkpt><trkpt lat="59.3402224593" lon="34.6549966000"><ele>160.31</ele><time>2026-08-23T05:34:20Z</time></trkpt><trkpt lat="59.3402864132" lon="34.6548453066"><ele>160.53</ele><time>2026-08-23T05:34:31Z</time></trkpt><trkpt lat="59.3403871637" lon="34.6546187438"><ele>159.49</ele><time>2026-08-23T05:34:48Z</time></trkpt><trkpt lat="59.3404061906" lon="34.6545819473"><ele>158.75</ele><time>2026-08-23T05:34:50Z</time></trkpt><trkpt lat="59.3404267263" lon="34.6545159817"><ele>158.37</ele><time>2026-08-23T05:34:53Z</time></trkpt><trkpt lat="59.3405416422" lon="34.6542484313"><ele>160.33</ele><time>2026-08-23T05:35:06Z</time></trkpt><trkpt lat="59.3406144809" lon="34.6541578230"><ele>161.65</ele><time>2026-08-23T05:35:15Z</time></trkpt><trkpt lat="59.3406967912" lon="34.6539756842"><ele>161.66</ele><time>2026-08-23T05:35:26Z</time></trkpt><trkpt lat="59.3407552131" lon="34.6538761072"><ele>160.82</ele><time>2026-08-23T05:35:36Z</time></trkpt><trkpt lat="59.3408341706" lon="34.6537778713"><ele>161.22</ele><time>2026-08-23T05:35:48Z</time></trkpt><trkpt lat="59.3408990465" lon="34.6537307650"><ele>162.85</ele><time>2026-08-23T05:35:58Z</time></trkpt><trkpt lat="59.3409841228" lon="34.6536989976"><ele>170.24</ele><time>2026-08-23T05:36:16Z</time></trkpt><trkpt lat="59.3410291336" lon="34.6536077186"><ele>169.94</ele><time>2026-08-23T05:36:28Z</time></trkpt><trkpt lat="59.3410903215" lon="34.6536000073"><ele>168.80</ele><time>2026-08-23T05:36:34Z</time></trkpt><trkpt lat="59.3412373401" lon="34.6535211336"><ele>165.89</ele><time>2026-08-23T05:36:48Z</time></trkpt><trkpt lat="59.3413717858" lon="34.6534192935"><ele>164.93</ele><time>2026-08-23T05:37:01Z</time></trkpt><trkpt lat="59.3415098358" lon="34.6532720234"><ele>162.74</ele><time>2026-08-23T05:37:17Z</time></trkpt><trkpt lat="59.3416372407" lon="34.6530996077"><ele>161.65</ele><time>2026-08-23T05:37:32Z</time></trkpt><trkpt lat="59.3416461255" lon="34.6530886274"><ele>161.42</ele><time>2026-08-23T05:37:33Z</time></trkpt><trkpt lat="59.3417175394" lon="34.6529890504"><ele>159.51</ele><time>2026-08-23T05:37:40Z</time></trkpt><trkpt lat="59.3417358957" lon="34.6529611386"><ele>159.12</ele><time>2026-08-23T05:37:42Z</time></trkpt><trkpt lat="59.3418323714" lon="34.6528470609"><ele>155.82</ele><time>2026-08-23T05:37:53Z</time></trkpt><trkpt lat="59.3418418430" lon="34.6528374217"><ele>155.65</ele><time>2026-08-23T05:37:54Z</time></trkpt><trkpt lat="59.3419653084" lon="34.6527669299"><ele>152.55</ele><time>2026-08-23T05:38:07Z</time></trkpt><trkpt lat="59.3420463614" lon="34.6526867989"><ele>150.69</ele><time>2026-08-23T05:38:19Z</time></trkpt><trkpt lat="59.3420750275" lon="34.6526439674"><ele>150.72</ele><time>2026-08-23T05:38:22Z</time></trkpt><trkpt lat="59.3421759456" lon="34.6524231881"><ele>150.93</ele><time>2026-08-23T05:38:35Z</time></trkpt><trkpt lat="59.3422560766" lon="34.6522701345"><ele>150.58</ele><time>2026-08-23T05:38:46Z</time></trkpt><trkpt lat="59.3423384707" lon="34.6521146502"><ele>148.81</ele><time>2026-08-23T05:38:58Z</time></trkpt><trkpt lat="59.3424565718" lon="34.6519568190"><ele>150.63</ele><time>2026-08-23T05:39:11Z</time></trkpt><trkpt lat="59.3425316736" lon="34.6518097166"><ele>151.97</ele><time>2026-08-23T05:39:21Z</time></trkpt><trkpt lat="59.3426148221" lon="34.6517072897"><ele>154.05</ele><time>2026-08-23T05:39:33Z</time></trkpt><trkpt lat="59.3427113816" lon="34.6515594330"><ele>154.94</ele><time>2026-08-23T05:39:45Z</time></trkpt><trkpt lat="59.3427213561" lon="34.6515488718"><ele>154.87</ele><time>2026-08-23T05:39:46Z</time></trkpt><trkpt lat="59.3428210169" lon="34.6513571776"><ele>153.32</ele><time>2026-08-23T05:39:59Z</time></trkpt><trkpt lat="59.3429124635" lon="34.6512295213"><ele>150.86</ele><time>2026-08-23T05:40:10Z</time></trkpt><trkpt lat="59.3430488370" lon="34.6510004438"><ele>148.42</ele><time>2026-08-23T05:40:25Z</time></trkpt><trkpt lat="59.3431737274" lon="34.6507937461"><ele>149.65</ele><time>2026-08-23T05:40:40Z</time></trkpt><trkpt lat="59.3432404473" lon="34.6507023834"><ele>149.44</ele><time>2026-08-23T05:40:52Z</time></trkpt><trkpt lat="59.3433147110" lon="34.6504479088"><ele>150.60</ele><time>2026-08-23T05:41:06Z</time></trkpt><trkpt lat="59.3433228415" lon="34.6503346693"><ele>150.50</ele><time>2026-08-23T05:41:10Z</time></trkpt><trkpt lat="59.3433796708" lon="34.6500913426"><ele>151.73</ele><time>2026-08-23T05:41:21Z</time></trkpt><trkpt lat="59.3434745539" lon="34.6498713177"><ele>149.53</ele><time>2026-08-23T05:41:33Z</time></trkpt><trkpt lat="59.3435127754" lon="34.6496090479"><ele>149.43</ele><time>2026-08-23T05:41:45Z</time></trkpt><trkpt lat="59.3435188103" lon="34.6495259833"><ele>149.97</ele><time>2026-08-23T05:41:54Z</time></trkpt><trkpt lat="59.3435153738" lon="34.6494844090"><ele>156.03</ele><time>2026-08-23T05:42:10Z</time></trkpt><trkpt lat="59.3435052317" lon="34.6494207066"><ele>158.66</ele><time>2026-08-23T05:42:29Z</time></trkpt><trkpt lat="59.3434906472" lon="34.6493919566"><ele>165.32</ele><time>2026-08-23T05:42:48Z</time></trkpt><trkpt lat="59.3435094226" lon="34.6493109874"><ele>167.26</ele><time>2026-08-23T05:43:02Z</time></trkpt><trkpt lat="59.3435201515" lon="34.6493180282"><ele>168.85</ele><time>2026-08-23T05:43:13Z</time></trkpt><trkpt lat="59.3435798306" lon="34.6494039427"><ele>170.02</ele><time>2026-08-23T05:43:28Z</time></trkpt><trkpt lat="59.3436039705" lon="34.6494505461"><ele>171.24</ele><time>2026-08-23T05:43:43Z</time></trkpt><trkpt lat="59.3436592072" lon="34.6494687349"><ele>172.52</ele><time>2026-08-23T05:44:05Z</time></trkpt><trkpt lat="59.3437550124" lon="34.6494669747"><ele>173.25</ele><time>2026-08-23T05:44:20Z</time></trkpt><trkpt lat="59.3437918928" lon="34.6494995803"><ele>174.07</ele><time>2026-08-23T05:44:34Z</time></trkpt><trkpt lat="59.3438255042" lon="34.6496043541"><ele>174.14</ele><time>2026-08-23T05:44:49Z</time></trkpt><trkpt lat="59.3438668270" lon="34.6497325972"><ele>174.92</ele><time>2026-08-23T05:45:04Z</time></trkpt><trkpt lat="59.3438649829" lon="34.6497483552"><ele>176.35</ele><time>2026-08-23T05:45:19Z</time></trkpt><trkpt lat="59.3438323773" lon="34.6497926116"><ele>176.91</ele><time>2026-08-23T05:45:41Z</time></trkpt><trkpt lat="59.3438004423" lon="34.6498182602"><ele>176.44</ele><time>2026-08-23T05:46:05Z</time></trkpt><trkpt lat="59.3437862769" lon="34.6498383768"><ele>176.97</ele><time>2026-08-23T05:46:27Z</time></trkpt><trkpt lat="59.3438085727" lon="34.6498536319"><ele>178.19</ele><time>2026-08-23T05:46:47Z</time></trkpt><trkpt lat="59.3437955808" lon="34.6499167476"><ele>178.25</ele><time>2026-08-23T05:47:03Z</time></trkpt><trkpt lat="59.3437888753" lon="34.6500008181"><ele>178.10</ele><time>2026-08-23T05:47:19Z</time></trkpt><trkpt lat="59.3438170385" lon="34.6500455774"><ele>178.93</ele><time>2026-08-23T05:47:38Z</time></trkpt><trkpt lat="59.3438871112" lon="34.6500936896"><ele>179.02</ele><time>2026-08-23T05:47:54Z</time></trkpt><trkpt lat="59.3439595308" lon="34.6501311567"><ele>178.83</ele><time>2026-08-23T05:48:10Z</time></trkpt><trkpt lat="59.3440057151" lon="34.6501953620"><ele>178.82</ele><time>2026-08-23T05:48:27Z</time></trkpt><trkpt lat="59.3440000992" lon="34.6502861381"><ele>179.27</ele><time>2026-08-23T05:48:43Z</time></trkpt><trkpt lat="59.3439311162" lon="34.6503652632"><ele>178.73</ele><time>2026-08-23T05:48:54Z</time></trkpt><trkpt lat="59.3438331317" lon="34.6504636668"><ele>177.61</ele><time>2026-08-23T05:49:11Z</time></trkpt><trkpt lat="59.3437270168" lon="34.6505665965"><ele>177.30</ele><time>2026-08-23T05:49:27Z</time></trkpt><trkpt lat="59.3436665833" lon="34.6505570412"><ele>177.22</ele><time>2026-08-23T05:49:42Z</time></trkpt><trkpt lat="59.3435870390" lon="34.6505169757"><ele>176.87</ele><time>2026-08-23T05:49:56Z</time></trkpt><trkpt lat="59.3435162120" lon="34.6505893115"><ele>176.85</ele><time>2026-08-23T05:50:13Z</time></trkpt><trkpt lat="59.3434921559" lon="34.6507627331"><ele>176.57</ele><time>2026-08-23T05:50:28Z</time></trkpt><trkpt lat="59.3434157968" lon="34.6508722007"><ele>176.17</ele><time>2026-08-23T05:50:43Z</time></trkpt><trkpt lat="59.3433867954" lon="34.6509372443"><ele>175.62</ele><time>2026-08-23T05:50:57Z</time></trkpt><trkpt lat="59.3433867116" lon="34.6510848496"><ele>175.32</ele><time>2026-08-23T05:51:11Z</time></trkpt><trkpt lat="59.3434037268" lon="34.6512319520"><ele>175.15</ele><time>2026-08-23T05:51:24Z</time></trkpt><trkpt lat="59.3434771523" lon="34.6512219775"><ele>175.26</ele><time>2026-08-23T05:51:41Z</time></trkpt><trkpt lat="59.3435735442" lon="34.6512317844"><ele>175.84</ele><time>2026-08-23T05:51:55Z</time></trkpt><trkpt lat="59.3436849397" lon="34.6512494702"><ele>176.19</ele><time>2026-08-23T05:52:09Z</time></trkpt><trkpt lat="59.3437574431" lon="34.6512714308"><ele>175.98</ele><time>2026-08-23T05:52:23Z</time></trkpt><trkpt lat="59.3438416813" lon="34.6512928046"><ele>176.75</ele><time>2026-08-23T05:52:39Z</time></trkpt><trkpt lat="59.3438415136" lon="34.6512882784"><ele>176.41</ele><time>2026-08-23T05:52:56Z</time></trkpt><trkpt lat="59.3438224029" lon="34.6511640586"><ele>176.72</ele><time>2026-08-23T05:53:21Z</time></trkpt><trkpt lat="59.3438502308" lon="34.6511228196"><ele>177.27</ele><time>2026-08-23T05:53:41Z</time></trkpt><trkpt lat="59.3439101614" lon="34.6512806509"><ele>177.05</ele><time>2026-08-23T05:53:57Z</time></trkpt><trkpt lat="59.3438525777" lon="34.6514053736"><ele>176.98</ele><time>2026-08-23T05:54:10Z</time></trkpt><trkpt lat="59.3437644839" lon="34.6513528191"><ele>176.56</ele><time>2026-08-23T05:54:24Z</time></trkpt><trkpt lat="59.3437224906" lon="34.6512534935"><ele>175.98</ele><time>2026-08-23T05:54:39Z</time></trkpt><trkpt lat="59.3436119333" lon="34.6512102429"><ele>174.99</ele><time>2026-08-23T05:54:53Z</time></trkpt><trkpt lat="59.3435343169" lon="34.6512077283"><ele>174.59</ele><time>2026-08-23T05:55:07Z</time></trkpt><trkpt lat="59.3434613105" lon="34.6513408329"><ele>174.29</ele><time>2026-08-23T05:55:23Z</time></trkpt><trkpt lat="59.3433778267" lon="34.6514087263"><ele>174.50</ele><time>2026-08-23T05:55:38Z</time></trkpt><trkpt lat="59.3432794232" lon="34.6514706686"><ele>173.88</ele><time>2026-08-23T05:55:54Z</time></trkpt><trkpt lat="59.3431634177" lon="34.6514255740"><ele>172.58</ele><time>2026-08-23T05:56:10Z</time></trkpt><trkpt lat="59.3430851307" lon="34.6515639592"><ele>172.63</ele><time>2026-08-23T05:56:27Z</time></trkpt><trkpt lat="59.3430297263" lon="34.6517191920"><ele>171.77</ele><time>2026-08-23T05:56:42Z</time></trkpt><trkpt lat="59.3430101126" lon="34.6518704854"><ele>170.70</ele><time>2026-08-23T05:56:56Z</time></trkpt><trkpt lat="59.3429664429" lon="34.6519758459"><ele>170.20</ele><time>2026-08-23T05:57:10Z</time></trkpt><trkpt lat="59.3429345917" lon="34.6520904265"><ele>170.27</ele><time>2026-08-23T05:57:25Z</time></trkpt><trkpt lat="59.3428951129" lon="34.6521784365"><ele>170.80</ele><time>2026-08-23T05:57:40Z</time></trkpt><trkpt lat="59.3428708892" lon="34.6522607468"><ele>171.33</ele><time>2026-08-23T05:57:57Z</time></trkpt><trkpt lat="59.3427985534" lon="34.6523484215"><ele>171.73</ele><time>2026-08-23T05:58:13Z</time></trkpt><trkpt lat="59.3427369464" lon="34.6523117088"><ele>172.14</ele><time>2026-08-23T05:58:23Z</time></trkpt><trkpt lat="59.3426949531" lon="34.6523308195"><ele>172.41</ele><time>2026-08-23T05:58:36Z</time></trkpt><trkpt lat="59.3426566478" lon="34.6524785087"><ele>172.83</ele><time>2026-08-23T05:58:52Z</time></trkpt><trkpt lat="59.3426086195" lon="34.6525606513"><ele>172.80</ele><time>2026-08-23T05:59:02Z</time></trkpt><trkpt lat="59.3425267283" lon="34.6525971964"><ele>172.65</ele><time>2026-08-23T05:59:19Z</time></trkpt><trkpt lat="59.3424527999" lon="34.6527077537"><ele>171.97</ele><time>2026-08-23T05:59:33Z</time></trkpt><trkpt lat="59.3423811346" lon="34.6528324764"><ele>171.00</ele><time>2026-08-23T05:59:48Z</time></trkpt><trkpt lat="59.3422908615" lon="34.6530190576"><ele>171.30</ele><time>2026-08-23T06:00:07Z</time></trkpt><trkpt lat="59.3422684819" lon="34.6530261822"><ele>171.03</ele><time>2026-08-23T06:00:12Z</time></trkpt><trkpt lat="59.3422213756" lon="34.6530428622"><ele>171.32</ele><time>2026-08-23T06:00:31Z</time></trkpt><trkpt lat="59.3421542365" lon="34.6530887950"><ele>173.36</ele><time>2026-08-23T06:00:54Z</time></trkpt><trkpt lat="59.3421062920" lon="34.6530457959"><ele>175.66</ele><time>2026-08-23T06:01:18Z</time></trkpt><trkpt lat="59.3420796376" lon="34.6530522499"><ele>177.54</ele><time>2026-08-23T06:01:32Z</time></trkpt><trkpt lat="59.3421577569" lon="34.6531659923"><ele>179.26</ele><time>2026-08-23T06:01:54Z</time></trkpt><trkpt lat="59.3421862554" lon="34.6531967539"><ele>179.57</ele><time>2026-08-23T06:02:00Z</time></trkpt><trkpt lat="59.3421847466" lon="34.6532208938"><ele>179.60</ele><time>2026-08-23T06:02:02Z</time></trkpt><trkpt lat="59.3422182743" lon="34.6533710975"><ele>180.63</ele><time>2026-08-23T06:02:24Z</time></trkpt><trkpt lat="59.3421750236" lon="34.6534524858"><ele>180.89</ele><time>2026-08-23T06:02:45Z</time></trkpt><trkpt lat="59.3421953917" lon="34.6536230575"><ele>180.91</ele><time>2026-08-23T06:02:59Z</time></trkpt><trkpt lat="59.3422281649" lon="34.6538043581"><ele>180.90</ele><time>2026-08-23T06:03:15Z</time></trkpt><trkpt lat="59.3422259856" lon="34.6540258080"><ele>179.35</ele><time>2026-08-23T06:03:27Z</time></trkpt><trkpt lat="59.3422984891" lon="34.6542386245"><ele>179.81</ele><time>2026-08-23T06:03:44Z</time></trkpt><trkpt lat="59.3423494510" lon="34.6544196736"><ele>178.70</ele><time>2026-08-23T06:04:02Z</time></trkpt><trkpt lat="59.3422954716" lon="34.6545233577"><ele>177.53</ele><time>2026-08-23T06:04:19Z</time></trkpt><trkpt lat="59.3422495387" lon="34.6546908282"><ele>177.20</ele><time>2026-08-23T06:04:35Z</time></trkpt><trkpt lat="59.3421627022" lon="34.6548210829"><ele>177.52</ele><time>2026-08-23T06:04:49Z</time></trkpt><trkpt lat="59.3420586828" lon="34.6548031457"><ele>176.36</ele><time>2026-08-23T06:05:05Z</time></trkpt><trkpt lat="59.3419975787" lon="34.6548274532"><ele>176.18</ele><time>2026-08-23T06:05:19Z</time></trkpt><trkpt lat="59.3419229798" lon="34.6548111923"><ele>176.11</ele><time>2026-08-23T06:05:35Z</time></trkpt><trkpt lat="59.3419010192" lon="34.6548187360"><ele>176.11</ele><time>2026-08-23T06:05:48Z</time></trkpt><trkpt lat="59.3418354727" lon="34.6549081709"><ele>176.27</ele><time>2026-08-23T06:06:04Z</time></trkpt><trkpt lat="59.3417277653" lon="34.6549490746"><ele>175.48</ele><time>2026-08-23T06:06:21Z</time></trkpt><trkpt lat="59.3416932318" lon="34.6549319755"><ele>175.59</ele><time>2026-08-23T06:06:38Z</time></trkpt><trkpt lat="59.3417110015" lon="34.6547811851"><ele>176.59</ele><time>2026-08-23T06:06:56Z</time></trkpt><trkpt lat="59.3417275138" lon="34.6546516847"><ele>177.56</ele><time>2026-08-23T06:07:12Z</time></trkpt><trkpt lat="59.3416941538" lon="34.6545697935"><ele>177.82</ele><time>2026-08-23T06:07:27Z</time></trkpt><trkpt lat="59.3416800722" lon="34.6544262115"><ele>178.16</ele><time>2026-08-23T06:07:39Z</time></trkpt><trkpt lat="59.3416198902" lon="34.6542275604"><ele>178.81</ele><time>2026-08-23T06:07:55Z</time></trkpt><trkpt lat="59.3416009471" lon="34.6540905163"><ele>178.90</ele><time>2026-08-23T06:08:09Z</time></trkpt><trkpt lat="59.3416447006" lon="34.6539683919"><ele>178.53</ele><time>2026-08-23T06:08:21Z</time></trkpt><trkpt lat="59.3416238297" lon="34.6537507977"><ele>178.63</ele><time>2026-08-23T06:08:36Z</time></trkpt><trkpt lat="59.3416240811" lon="34.6535925474"><ele>179.14</ele><time>2026-08-23T06:08:54Z</time></trkpt><trkpt lat="59.3416189682" lon="34.6534947306"><ele>179.29</ele><time>2026-08-23T06:09:12Z</time></trkpt><trkpt lat="59.3415787350" lon="34.6533156093"><ele>179.45</ele><time>2026-08-23T06:09:28Z</time></trkpt><trkpt lat="59.3415784836" lon="34.6531602088"><ele>179.79</ele><time>2026-08-23T06:09:44Z</time></trkpt><trkpt lat="59.3415703531" lon="34.6530116815"><ele>179.90</ele><time>2026-08-23T06:10:00Z</time></trkpt><trkpt lat="59.3415747955" lon="34.6528783254"><ele>179.53</ele><time>2026-08-23T06:10:14Z</time></trkpt><trkpt lat="59.3416603748" lon="34.6527247690"><ele>179.31</ele><time>2026-08-23T06:10:31Z</time></trkpt><trkpt lat="59.3416985963" lon="34.6526712086"><ele>180.05</ele><time>2026-08-23T06:10:45Z</time></trkpt><trkpt lat="59.3417032901" lon="34.6526688617"><ele>180.06</ele><time>2026-08-23T06:10:46Z</time></trkpt><trkpt lat="59.3417851813" lon="34.6527068317"><ele>181.27</ele><time>2026-08-23T06:11:02Z</time></trkpt><trkpt lat="59.3418684136" lon="34.6525540296"><ele>181.02</ele><time>2026-08-23T06:11:17Z</time></trkpt><trkpt lat="59.3419928011" lon="34.6524534468"><ele>180.60</ele><time>2026-08-23T06:11:36Z</time></trkpt><trkpt lat="59.3420539889" lon="34.6524356771"><ele>179.41</ele><time>2026-08-23T06:11:50Z</time></trkpt><trkpt lat="59.3422032706" lon="34.6525131259"><ele>178.13</ele><time>2026-08-23T06:12:09Z</time></trkpt><trkpt lat="59.3422913644" lon="34.6523568034"><ele>177.71</ele><time>2026-08-23T06:12:25Z</time></trkpt><trkpt lat="59.3422838207" lon="34.6523862239"><ele>177.87</ele><time>2026-08-23T06:12:34Z</time></trkpt><trkpt lat="59.3422994111" lon="34.6524111181"><ele>178.65</ele><time>2026-08-23T06:12:48Z</time></trkpt><trkpt lat="59.3423061166" lon="34.6524233557"><ele>179.43</ele><time>2026-08-23T06:12:59Z</time></trkpt><trkpt lat="59.3422865868" lon="34.6524358448"><ele>179.71</ele><time>2026-08-23T06:13:16Z</time></trkpt><trkpt lat="59.3421908654" lon="34.6525157243"><ele>180.04</ele><time>2026-08-23T06:13:45Z</time></trkpt><trkpt lat="59.3421533145" lon="34.6525780018"><ele>179.84</ele><time>2026-08-23T06:13:57Z</time></trkpt><trkpt lat="59.3421062082" lon="34.6526592225"><ele>179.54</ele><time>2026-08-23T06:14:06Z</time></trkpt><trkpt lat="59.3419549149" lon="34.6528183948"><ele>177.54</ele><time>2026-08-23T06:14:22Z</time></trkpt><trkpt lat="59.3417813256" lon="34.6530240867"><ele>175.61</ele><time>2026-08-23T06:14:40Z</time></trkpt><trkpt lat="59.3417570181" lon="34.6530496515"><ele>175.54</ele><time>2026-08-23T06:14:42Z</time></trkpt><trkpt lat="59.3416152801" lon="34.6532149427"><ele>175.45</ele><time>2026-08-23T06:14:56Z</time></trkpt><trkpt lat="59.3415135238" lon="34.6533566806"><ele>174.55</ele><time>2026-08-23T06:15:08Z</time></trkpt><trkpt lat="59.3413234223" lon="34.6534777153"><ele>175.81</ele><time>2026-08-23T06:15:26Z</time></trkpt><trkpt lat="59.3412015494" lon="34.6535334550"><ele>177.26</ele><time>2026-08-23T06:15:42Z</time></trkpt><trkpt lat="59.3411100190" lon="34.6536337025"><ele>177.01</ele><time>2026-08-23T06:15:55Z</time></trkpt><trkpt lat="59.3409565464" lon="34.6536885202"><ele>177.74</ele><time>2026-08-23T06:16:12Z</time></trkpt><trkpt lat="59.3408393674" lon="34.6538083814"><ele>177.30</ele><time>2026-08-23T06:16:32Z</time></trkpt><trkpt lat="59.3407067657" lon="34.6539727505"><ele>177.70</ele><time>2026-08-23T06:16:51Z</time></trkpt><trkpt lat="59.3406703882" lon="34.6538900211"><ele>178.05</ele><time>2026-08-23T06:17:02Z</time></trkpt><trkpt lat="59.3405445758" lon="34.6538905241"><ele>178.06</ele><time>2026-08-23T06:17:17Z</time></trkpt><trkpt lat="59.3404348567" lon="34.6539070364"><ele>177.64</ele><time>2026-08-23T06:17:31Z</time></trkpt><trkpt lat="59.3403631076" lon="34.6539098024"><ele>177.33</ele><time>2026-08-23T06:17:41Z</time></trkpt><trkpt lat="59.3402936216" lon="34.6538212895"><ele>177.64</ele><time>2026-08-23T06:17:55Z</time></trkpt><trkpt lat="59.3402106408" lon="34.6538104769"><ele>178.69</ele><time>2026-08-23T06:18:09Z</time></trkpt><trkpt lat="59.3401722517" lon="34.6538429148"><ele>177.69</ele><time>2026-08-23T06:18:24Z</time></trkpt><trkpt lat="59.3401717488" lon="34.6539099701"><ele>177.53</ele><time>2026-08-23T06:18:42Z</time></trkpt><trkpt lat="59.3402301706" lon="34.6540593356"><ele>178.49</ele><time>2026-08-23T06:18:56Z</time></trkpt><trkpt lat="59.3402785342" lon="34.6540802065"><ele>178.73</ele><time>2026-08-23T06:19:11Z</time></trkpt><trkpt lat="59.3403544743" lon="34.6541436575"><ele>179.03</ele><time>2026-08-23T06:19:26Z</time></trkpt><trkpt lat="59.3403521273" lon="34.6542734932"><ele>178.26</ele><time>2026-08-23T06:19:44Z</time></trkpt><trkpt lat="59.3403330166" lon="34.6544643492"><ele>178.06</ele><time>2026-08-23T06:20:00Z</time></trkpt><trkpt lat="59.3403578270" lon="34.6546174865"><ele>177.49</ele><time>2026-08-23T06:20:11Z</time></trkpt><trkpt lat="59.3402919453" lon="34.6547483280"><ele>178.11</ele><time>2026-08-23T06:20:26Z</time></trkpt><trkpt lat="59.3402098026" lon="34.6549408603"><ele>178.13</ele><time>2026-08-23T06:20:42Z</time></trkpt><trkpt lat="59.3401901051" lon="34.6550013777"><ele>177.82</ele><time>2026-08-23T06:20:45Z</time></trkpt><trkpt lat="59.3401308451" lon="34.6552271023"><ele>177.45</ele><time>2026-08-23T06:21:02Z</time></trkpt><trkpt lat="59.3400834035" lon="34.6554784756"><ele>176.90</ele><time>2026-08-23T06:21:19Z</time></trkpt><trkpt lat="59.3400388956" lon="34.6556538250"><ele>175.51</ele><time>2026-08-23T06:21:32Z</time></trkpt><trkpt lat="59.3399740197" lon="34.6557986643"><ele>175.40</ele><time>2026-08-23T06:21:45Z</time></trkpt><trkpt lat="59.3398832437" lon="34.6558722574"><ele>174.80</ele><time>2026-08-23T06:21:58Z</time></trkpt><trkpt lat="59.3398729339" lon="34.6558736823"><ele>174.88</ele><time>2026-08-23T06:22:00Z</time></trkpt><trkpt lat="59.3397485465" lon="34.6559682302"><ele>177.16</ele><time>2026-08-23T06:22:16Z</time></trkpt><trkpt lat="59.3396645598" lon="34.6560262330"><ele>180.14</ele><time>2026-08-23T06:22:28Z</time></trkpt><trkpt lat="59.3395687547" lon="34.6561281569"><ele>179.66</ele><time>2026-08-23T06:22:43Z</time></trkpt><trkpt lat="59.3395439442" lon="34.6564187575"><ele>178.54</ele><time>2026-08-23T06:22:57Z</time></trkpt><trkpt lat="59.3395670783" lon="34.6566786803"><ele>176.50</ele><time>2026-08-23T06:23:13Z</time></trkpt><trkpt lat="59.3395888712" lon="34.6570033953"><ele>173.94</ele><time>2026-08-23T06:23:31Z</time></trkpt><trkpt lat="59.3395876978" lon="34.6572639886"><ele>173.06</ele><time>2026-08-23T06:23:46Z</time></trkpt><trkpt lat="59.3395780586" lon="34.6572930738"><ele>173.10</ele><time>2026-08-23T06:23:47Z</time></trkpt><trkpt lat="59.3395599537" lon="34.6575794835"><ele>173.67</ele><time>2026-08-23T06:24:03Z</time></trkpt><trkpt lat="59.3395343889" lon="34.6575456206"><ele>174.54</ele><time>2026-08-23T06:24:14Z</time></trkpt><trkpt lat="59.3394501507" lon="34.6577404998"><ele>174.44</ele><time>2026-08-23T06:24:30Z</time></trkpt><trkpt lat="59.3393686786" lon="34.6578103211"><ele>174.47</ele><time>2026-08-23T06:24:47Z</time></trkpt><trkpt lat="59.3393341452" lon="34.6578116622"><ele>174.44</ele><time>2026-08-23T06:24:51Z</time></trkpt><trkpt lat="59.3392138649" lon="34.6578788012"><ele>174.18</ele><time>2026-08-23T06:25:04Z</time></trkpt><trkpt lat="59.3391694408" lon="34.6578600258"><ele>174.06</ele><time>2026-08-23T06:25:09Z</time></trkpt><trkpt lat="59.3390525971" lon="34.6577688307"><ele>174.67</ele><time>2026-08-23T06:25:23Z</time></trkpt><trkpt lat="59.3390013836" lon="34.6577265020"><ele>175.83</ele><time>2026-08-23T06:25:30Z</time></trkpt><trkpt lat="59.3389391899" lon="34.6577512287"><ele>177.67</ele><time>2026-08-23T06:25:44Z</time></trkpt><trkpt lat="59.3389716279" lon="34.6579024382"><ele>177.77</ele><time>2026-08-23T06:26:00Z</time></trkpt><trkpt lat="59.3389888108" lon="34.6579861734"><ele>177.73</ele><time>2026-08-23T06:26:11Z</time></trkpt><trkpt lat="59.3391125277" lon="34.6580645442"><ele>176.40</ele><time>2026-08-23T06:26:25Z</time></trkpt><trkpt lat="59.3391737994" lon="34.6582493652"><ele>176.50</ele><time>2026-08-23T06:26:39Z</time></trkpt><trkpt lat="59.3392392620" lon="34.6582763549"><ele>177.11</ele><time>2026-08-23T06:26:50Z</time></trkpt><trkpt lat="59.3392597977" lon="34.6583396383"><ele>176.67</ele><time>2026-08-23T06:27:00Z</time></trkpt><trkpt lat="59.3392861169" lon="34.6581725031"><ele>175.87</ele><time>2026-08-23T06:27:15Z</time></trkpt><trkpt lat="59.3392820098" lon="34.6581390593"><ele>175.68</ele><time>2026-08-23T06:27:18Z</time></trkpt><trkpt lat="59.3393125199" lon="34.6579670627"><ele>175.77</ele><time>2026-08-23T06:27:31Z</time></trkpt><trkpt lat="59.3393705226" lon="34.6577941440"><ele>175.85</ele><time>2026-08-23T06:27:44Z</time></trkpt><trkpt lat="59.3394500669" lon="34.6578428429"><ele>174.57</ele><time>2026-08-23T06:28:00Z</time></trkpt><trkpt lat="59.3394866958" lon="34.6579311881"><ele>173.69</ele><time>2026-08-23T06:28:13Z</time></trkpt><trkpt lat="59.3395097461" lon="34.6580779552"><ele>173.37</ele><time>2026-08-23T06:28:23Z</time></trkpt><trkpt lat="59.3395783100" lon="34.6582203638"><ele>174.64</ele><time>2026-08-23T06:28:33Z</time></trkpt><trkpt lat="59.3396064732" lon="34.6584232897"><ele>175.81</ele><time>2026-08-23T06:28:48Z</time></trkpt><trkpt lat="59.3396377377" lon="34.6585489344"><ele>175.36</ele><time>2026-08-23T06:28:57Z</time></trkpt><trkpt lat="59.3396387435" lon="34.6587690432"><ele>174.56</ele><time>2026-08-23T06:29:08Z</time></trkpt><trkpt lat="59.3396131787" lon="34.6589305624"><ele>174.68</ele><time>2026-08-23T06:29:19Z</time></trkpt><trkpt lat="59.3396444432" lon="34.6590913273"><ele>174.11</ele><time>2026-08-23T06:29:37Z</time></trkpt><trkpt lat="59.3396704271" lon="34.6590854600"><ele>174.71</ele><time>2026-08-23T06:29:44Z</time></trkpt><trkpt lat="59.3397300225" lon="34.6590284631"><ele>177.31</ele><time>2026-08-23T06:30:08Z</time></trkpt><trkpt lat="59.3396937288" lon="34.6590088494"><ele>177.98</ele><time>2026-08-23T06:30:31Z</time></trkpt><trkpt lat="59.3396722712" lon="34.6589281317"><ele>179.42</ele><time>2026-08-23T06:30:49Z</time></trkpt><trkpt lat="59.3396991771" lon="34.6592375077"><ele>178.63</ele><time>2026-08-23T06:31:01Z</time></trkpt><trkpt lat="59.3398515601" lon="34.6593502443"><ele>178.36</ele><time>2026-08-23T06:31:17Z</time></trkpt><trkpt lat="59.3398698326" lon="34.6593748871"><ele>178.42</ele><time>2026-08-23T06:31:19Z</time></trkpt><trkpt lat="59.3399820663" lon="34.6595289465"><ele>177.91</ele><time>2026-08-23T06:31:31Z</time></trkpt><trkpt lat="59.3401038554" lon="34.6597118396"><ele>176.76</ele><time>2026-08-23T06:31:45Z</time></trkpt><trkpt lat="59.3401973974" lon="34.6598030347"><ele>175.75</ele><time>2026-08-23T06:31:59Z</time></trkpt><trkpt lat="59.3403090443" lon="34.6598917991"><ele>175.31</ele><time>2026-08-23T06:32:14Z</time></trkpt><trkpt lat="59.3404206913" lon="34.6601547394"><ele>174.34</ele><time>2026-08-23T06:32:34Z</time></trkpt><trkpt lat="59.3404909316" lon="34.6604087949"><ele>172.51</ele><time>2026-08-23T06:32:51Z</time></trkpt><trkpt lat="59.3406061828" lon="34.6606366988"><ele>170.41</ele><time>2026-08-23T06:33:08Z</time></trkpt><trkpt lat="59.3406323344" lon="34.6606617607"><ele>170.91</ele><time>2026-08-23T06:33:10Z</time></trkpt><trkpt lat="59.3406457454" lon="34.6607133094"><ele>170.97</ele><time>2026-08-23T06:33:16Z</time></trkpt><trkpt lat="59.3406578992" lon="34.6609391179"><ele>170.02</ele><time>2026-08-23T06:33:34Z</time></trkpt><trkpt lat="59.3407065142" lon="34.6610471606"><ele>170.07</ele><time>2026-08-23T06:33:45Z</time></trkpt><trkpt lat="59.3408668600" lon="34.6610675287"><ele>170.36</ele><time>2026-08-23T06:34:06Z</time></trkpt><trkpt lat="59.3409326579" lon="34.6611822769"><ele>170.22</ele><time>2026-08-23T06:34:18Z</time></trkpt><trkpt lat="59.3410044909" lon="34.6613565367"><ele>168.76</ele><time>2026-08-23T06:34:32Z</time></trkpt><trkpt lat="59.3410332408" lon="34.6616631467"><ele>166.72</ele><time>2026-08-23T06:34:49Z</time></trkpt><trkpt lat="59.3410709593" lon="34.6619189624"><ele>164.25</ele><time>2026-08-23T06:35:03Z</time></trkpt><trkpt lat="59.3410874717" lon="34.6620203834"><ele>163.15</ele><time>2026-08-23T06:35:08Z</time></trkpt><trkpt lat="59.3411229271" lon="34.6622396540"><ele>161.36</ele><time>2026-08-23T06:35:20Z</time></trkpt><trkpt lat="59.3411436304" lon="34.6625653747"><ele>159.41</ele><time>2026-08-23T06:35:38Z</time></trkpt><trkpt lat="59.3411940895" lon="34.6628144011"><ele>157.51</ele><time>2026-08-23T06:35:54Z</time></trkpt><trkpt lat="59.3412131164" lon="34.6629460808"><ele>156.61</ele><time>2026-08-23T06:36:02Z</time></trkpt><trkpt lat="59.3412225880" lon="34.6631485038"><ele>155.82</ele><time>2026-08-23T06:36:15Z</time></trkpt><trkpt lat="59.3412106019" lon="34.6633118670"><ele>155.35</ele><time>2026-08-23T06:36:27Z</time></trkpt><trkpt lat="59.3412067462" lon="34.6634299681"><ele>154.72</ele><time>2026-08-23T06:36:35Z</time></trkpt><trkpt lat="59.3411849532" lon="34.6637311298"><ele>153.68</ele><time>2026-08-23T06:36:50Z</time></trkpt><trkpt lat="59.3411603104" lon="34.6637970116"><ele>153.61</ele><time>2026-08-23T06:36:58Z</time></trkpt><trkpt lat="59.3410964403" lon="34.6638260968"><ele>154.09</ele><time>2026-08-23T06:37:14Z</time></trkpt><trkpt lat="59.3411062472" lon="34.6638946608"><ele>155.51</ele><time>2026-08-23T06:37:29Z</time></trkpt><trkpt lat="59.3411443010" lon="34.6641628817"><ele>155.53</ele><time>2026-08-23T06:37:45Z</time></trkpt><trkpt lat="59.3411832768" lon="34.6642880235"><ele>156.14</ele><time>2026-08-23T06:37:53Z</time></trkpt><trkpt lat="59.3412689399" lon="34.6645332780"><ele>157.53</ele><time>2026-08-23T06:38:12Z</time></trkpt><trkpt lat="59.3413059879" lon="34.6646175161"><ele>158.23</ele><time>2026-08-23T06:38:28Z</time></trkpt><trkpt lat="59.3413927406" lon="34.6649434883"><ele>159.67</ele><time>2026-08-23T06:38:46Z</time></trkpt><trkpt lat="59.3414598797" lon="34.6653042454"><ele>160.51</ele><time>2026-08-23T06:39:03Z</time></trkpt><trkpt lat="59.3414977659" lon="34.6654681116"><ele>161.27</ele><time>2026-08-23T06:39:19Z</time></trkpt><trkpt lat="59.3415457103" lon="34.6655923314"><ele>161.12</ele><time>2026-08-23T06:39:27Z</time></trkpt><trkpt lat="59.3416055571" lon="34.6658601332"><ele>161.74</ele><time>2026-08-23T06:39:42Z</time></trkpt><trkpt lat="59.3417374883" lon="34.6660924796"><ele>163.02</ele><time>2026-08-23T06:40:00Z</time></trkpt><trkpt lat="59.3417838402" lon="34.6661880333"><ele>163.28</ele><time>2026-08-23T06:40:07Z</time></trkpt><trkpt lat="59.3419223931" lon="34.6664573438"><ele>165.01</ele><time>2026-08-23T06:40:25Z</time></trkpt><trkpt lat="59.3419901188" lon="34.6666483674"><ele>166.32</ele><time>2026-08-23T06:40:37Z</time></trkpt><trkpt lat="59.3420767877" lon="34.6668994892"><ele>167.00</ele><time>2026-08-23T06:40:52Z</time></trkpt><trkpt lat="59.3421128299" lon="34.6671380382"><ele>167.69</ele><time>2026-08-23T06:41:04Z</time></trkpt><trkpt lat="59.3422230519" lon="34.6675236057"><ele>168.65</ele><time>2026-08-23T06:41:24Z</time></trkpt><trkpt lat="59.3423011713" lon="34.6677443851"><ele>169.48</ele><time>2026-08-23T06:41:39Z</time></trkpt><trkpt lat="59.3423551507" lon="34.6679338161"><ele>169.83</ele><time>2026-08-23T06:41:52Z</time></trkpt><trkpt lat="59.3423650414" lon="34.6679708641"><ele>170.06</ele><time>2026-08-23T06:42:00Z</time></trkpt><trkpt lat="59.3423388898" lon="34.6679128613"><ele>171.48</ele><time>2026-08-23T06:42:23Z</time></trkpt><trkpt lat="59.3423523847" lon="34.6679406893"><ele>174.51</ele><time>2026-08-23T06:42:45Z</time></trkpt><trkpt lat="59.3423433322" lon="34.6679492388"><ele>175.07</ele><time>2026-08-23T06:42:48Z</time></trkpt><trkpt lat="59.3423880078" lon="34.6680514142"><ele>177.45</ele><time>2026-08-23T06:43:14Z</time></trkpt><trkpt lat="59.3424018379" lon="34.6680701058"><ele>178.06</ele><time>2026-08-23T06:43:36Z</time></trkpt><trkpt lat="59.3423483614" lon="34.6681024600"><ele>179.07</ele><time>2026-08-23T06:44:03Z</time></trkpt><trkpt lat="59.3422937114" lon="34.6680665854"><ele>181.37</ele><time>2026-08-23T06:44:27Z</time></trkpt><trkpt lat="59.3423687294" lon="34.6680908930"><ele>180.99</ele><time>2026-08-23T06:44:48Z</time></trkpt><trkpt lat="59.3424088787" lon="34.6680777334"><ele>179.36</ele><time>2026-08-23T06:45:06Z</time></trkpt><trkpt lat="59.3424833938" lon="34.6682358999"><ele>176.81</ele><time>2026-08-23T06:45:23Z</time></trkpt><trkpt lat="59.3425508682" lon="34.6683799848"><ele>175.63</ele><time>2026-08-23T06:45:39Z</time></trkpt><trkpt lat="59.3426187616" lon="34.6686233114"><ele>173.36</ele><time>2026-08-23T06:45:57Z</time></trkpt><trkpt lat="59.3426910136" lon="34.6688391455"><ele>171.76</ele><time>2026-08-23T06:46:15Z</time></trkpt><trkpt lat="59.3427713960" lon="34.6690304205"><ele>169.51</ele><time>2026-08-23T06:46:31Z</time></trkpt><trkpt lat="59.3428482581" lon="34.6692003217"><ele>167.96</ele><time>2026-08-23T06:46:48Z</time></trkpt><trkpt lat="59.3429565523" lon="34.6694483422"><ele>165.06</ele><time>2026-08-23T06:47:05Z</time></trkpt><trkpt lat="59.3430660199" lon="34.6697449777"><ele>161.66</ele><time>2026-08-23T06:47:21Z</time></trkpt><trkpt lat="59.3431641720" lon="34.6699958481"><ele>158.66</ele><time>2026-08-23T06:47:39Z</time></trkpt><trkpt lat="59.3433040660" lon="34.6701929905"><ele>155.66</ele><time>2026-08-23T06:47:57Z</time></trkpt><trkpt lat="59.3433903996" lon="34.6704016998"><ele>152.33</ele><time>2026-08-23T06:48:12Z</time></trkpt><trkpt lat="59.3435017113" lon="34.6706636343"><ele>151.94</ele><time>2026-08-23T06:48:26Z</time></trkpt><trkpt lat="59.3435376696" lon="34.6707409993"><ele>152.00</ele><time>2026-08-23T06:48:30Z</time></trkpt><trkpt lat="59.3436070718" lon="34.6709759440"><ele>153.09</ele><time>2026-08-23T06:48:44Z</time></trkpt><trkpt lat="59.3436922319" lon="34.6713081188"><ele>154.51</ele><time>2026-08-23T06:49:01Z</time></trkpt><trkpt lat="59.3437485583" lon="34.6715526190"><ele>153.60</ele><time>2026-08-23T06:49:16Z</time></trkpt><trkpt lat="59.3437905516" lon="34.6718464885"><ele>151.92</ele><time>2026-08-23T06:49:31Z</time></trkpt><trkpt lat="59.3438118417" lon="34.6719832812"><ele>148.18</ele><time>2026-08-23T06:49:43Z</time></trkpt><trkpt lat="59.3438128475" lon="34.6721049026"><ele>145.17</ele><time>2026-08-23T06:49:53Z</time></trkpt><trkpt lat="59.3438602891" lon="34.6723644901"><ele>140.79</ele><time>2026-08-23T06:50:12Z</time></trkpt><trkpt lat="59.3439660687" lon="34.6726663224"><ele>142.10</ele><time>2026-08-23T06:50:28Z</time></trkpt><trkpt lat="59.3439938128" lon="34.6727270912"><ele>141.70</ele><time>2026-08-23T06:50:33Z</time></trkpt><trkpt lat="59.3440518156" lon="34.6729390696"><ele>141.88</ele><time>2026-08-23T06:50:44Z</time></trkpt><trkpt lat="59.3440530729" lon="34.6732700709"><ele>141.81</ele><time>2026-08-23T06:50:54Z</time></trkpt><trkpt lat="59.3441648036" lon="34.6736166626"><ele>141.81</ele><time>2026-08-23T06:51:06Z</time></trkpt><trkpt lat="59.3442379776" lon="34.6738895774"><ele>146.16</ele><time>2026-08-23T06:51:21Z</time></trkpt><trkpt lat="59.3442781270" lon="34.6739382762"><ele>144.61</ele><time>2026-08-23T06:51:34Z</time></trkpt><trkpt lat="59.3443511333" lon="34.6740453131"><ele>146.69</ele><time>2026-08-23T06:51:51Z</time></trkpt><trkpt lat="59.3444007542" lon="34.6742177289"><ele>147.03</ele><time>2026-08-23T06:52:03Z</time></trkpt><trkpt lat="59.3445028458" lon="34.6743890550"><ele>148.30</ele><time>2026-08-23T06:52:18Z</time></trkpt><trkpt lat="59.3445333559" lon="34.6744891349"><ele>148.52</ele><time>2026-08-23T06:52:28Z</time></trkpt><trkpt lat="59.3445644528" lon="34.6745791566"><ele>149.18</ele><time>2026-08-23T06:52:36Z</time></trkpt><trkpt lat="59.3446320109" lon="34.6747201402"><ele>148.72</ele><time>2026-08-23T06:52:48Z</time></trkpt><trkpt lat="59.3446601741" lon="34.6748312004"><ele>149.55</ele><time>2026-08-23T06:53:05Z</time></trkpt><trkpt lat="59.3446641974" lon="34.6748343855"><ele>149.55</ele><time>2026-08-23T06:53:06Z</time></trkpt><trkpt lat="59.3447510339" lon="34.6748887841"><ele>153.82</ele><time>2026-08-23T06:53:26Z</time></trkpt><trkpt lat="59.3447379582" lon="34.6749012731"><ele>160.45</ele><time>2026-08-23T06:53:46Z</time></trkpt><trkpt lat="59.3447999842" lon="34.6749372315"><ele>162.14</ele><time>2026-08-23T06:53:58Z</time></trkpt><trkpt lat="59.3448078632" lon="34.6749690827"><ele>163.57</ele><time>2026-08-23T06:54:16Z</time></trkpt><trkpt lat="59.3448065221" lon="34.6749064699"><ele>165.18</ele><time>2026-08-23T06:54:36Z</time></trkpt><trkpt lat="59.3447885010" lon="34.6748737805"><ele>166.08</ele><time>2026-08-23T06:54:48Z</time></trkpt><trkpt lat="59.3447271455" lon="34.6748654824"><ele>165.39</ele><time>2026-08-23T06:55:14Z</time></trkpt><trkpt lat="59.3447004911" lon="34.6748531610"><ele>165.56</ele><time>2026-08-23T06:55:33Z</time></trkpt><trkpt lat="59.3446833920" lon="34.6748888679"><ele>164.69</ele><time>2026-08-23T06:55:56Z</time></trkpt><trkpt lat="59.3447117228" lon="34.6749248262"><ele>165.61</ele><time>2026-08-23T06:56:15Z</time></trkpt><trkpt lat="59.3447471783" lon="34.6750087291"><ele>168.09</ele><time>2026-08-23T06:56:44Z</time></trkpt><trkpt lat="59.3447134830" lon="34.6750088129"><ele>168.99</ele><time>2026-08-23T06:57:08Z</time></trkpt><trkpt lat="59.3446980603" lon="34.6749725193"><ele>170.26</ele><time>2026-08-23T06:57:31Z</time></trkpt><trkpt lat="59.3446989823" lon="34.6749536600"><ele>171.66</ele><time>2026-08-23T06:57:57Z</time></trkpt><trkpt lat="59.3447081186" lon="34.6750213858"><ele>172.47</ele><time>2026-08-23T06:58:19Z</time></trkpt><trkpt lat="59.3446784467" lon="34.6748812404"><ele>172.16</ele><time>2026-08-23T06:58:43Z</time></trkpt><trkpt lat="59.3447367847" lon="34.6749308612"><ele>172.76</ele><time>2026-08-23T06:59:02Z</time></trkpt><trkpt lat="59.3447577395" lon="34.6749498043"><ele>172.56</ele><time>2026-08-23T06:59:25Z</time></trkpt><trkpt lat="59.3447246309" lon="34.6749301907"><ele>173.26</ele><time>2026-08-23T06:59:48Z</time></trkpt><trkpt lat="59.3447022513" lon="34.6749016922"><ele>171.54</ele><time>2026-08-23T07:00:14Z</time></trkpt><trkpt lat="59.3446890078" lon="34.6749218088"><ele>172.77</ele><time>2026-08-23T07:00:36Z</time></trkpt><trkpt lat="59.3447309174" lon="34.6749312803"><ele>173.12</ele><time>2026-08-23T07:00:58Z</time></trkpt><trkpt lat="59.3446576595" lon="34.6749439370"><ele>173.53</ele><time>2026-08-23T07:01:03Z</time></trkpt><trkpt lat="59.3446655385" lon="34.6749256644"><ele>173.71</ele><time>2026-08-23T07:01:28Z</time></trkpt><trkpt lat="59.3446653709" lon="34.6748892032"><ele>173.86</ele><time>2026-08-23T07:01:54Z</time></trkpt><trkpt lat="59.3447643612" lon="34.6749807335"><ele>174.49</ele><time>2026-08-23T07:02:17Z</time></trkpt><trkpt lat="59.3447651993" lon="34.6749639697"><ele>174.83</ele><time>2026-08-23T07:02:45Z</time></trkpt><trkpt lat="59.3447890040" lon="34.6749522351"><ele>175.56</ele><time>2026-08-23T07:03:06Z</time></trkpt><trkpt lat="59.3447800353" lon="34.6749872714"><ele>175.71</ele><time>2026-08-23T07:03:30Z</time></trkpt><trkpt lat="59.3447289057" lon="34.6749206353"><ele>175.57</ele><time>2026-08-23T07:03:53Z</time></trkpt><trkpt lat="59.3448592443" lon="34.6749935579"><ele>175.80</ele><time>2026-08-23T07:04:08Z</time></trkpt><trkpt lat="59.3449983001" lon="34.6750586852"><ele>175.61</ele><time>2026-08-23T07:04:24Z</time></trkpt><trkpt lat="59.3450889084" lon="34.6751546580"><ele>175.78</ele><time>2026-08-23T07:04:37Z</time></trkpt><trkpt lat="59.3451423850" lon="34.6753093880"><ele>175.44</ele><time>2026-08-23T07:04:49Z</time></trkpt><trkpt lat="59.3452627491" lon="34.6754288301"><ele>174.79</ele><time>2026-08-23T07:05:03Z</time></trkpt><trkpt lat="59.3453672715" lon="34.6754639503"><ele>172.95</ele><time>2026-08-23T07:05:19Z</time></trkpt><trkpt lat="59.3454175629" lon="34.6754659619"><ele>173.61</ele><time>2026-08-23T07:05:36Z</time></trkpt><trkpt lat="59.3454380147" lon="34.6754480246"><ele>174.97</ele><time>2026-08-23T07:06:01Z</time></trkpt><trkpt lat="59.3454764877" lon="34.6754714102"><ele>175.74</ele><time>2026-08-23T07:06:21Z</time></trkpt><trkpt lat="59.3454764038" lon="34.6755635273"><ele>176.48</ele><time>2026-08-23T07:06:36Z</time></trkpt><trkpt lat="59.3455540203" lon="34.6756229550"><ele>177.60</ele><time>2026-08-23T07:06:55Z</time></trkpt><trkpt lat="59.3455802556" lon="34.6756997332"><ele>177.56</ele><time>2026-08-23T07:07:07Z</time></trkpt><trkpt lat="59.3456420302" lon="34.6758103743"><ele>177.83</ele><time>2026-08-23T07:07:14Z</time></trkpt><trkpt lat="59.3456797488" lon="34.6759408806"><ele>177.83</ele><time>2026-08-23T07:07:23Z</time></trkpt><trkpt lat="59.3457138631" lon="34.6761636715"><ele>177.81</ele><time>2026-08-23T07:07:36Z</time></trkpt><trkpt lat="59.3457545154" lon="34.6764510870"><ele>176.43</ele><time>2026-08-23T07:07:50Z</time></trkpt><trkpt lat="59.3457634840" lon="34.6766566113"><ele>174.05</ele><time>2026-08-23T07:08:01Z</time></trkpt><trkpt lat="59.3457724527" lon="34.6768137719"><ele>172.70</ele><time>2026-08-23T07:08:09Z</time></trkpt><trkpt lat="59.3457830977" lon="34.6769659035"><ele>171.52</ele><time>2026-08-23T07:08:18Z</time></trkpt><trkpt lat="59.3457317166" lon="34.6772653889"><ele>168.70</ele><time>2026-08-23T07:08:33Z</time></trkpt><trkpt lat="59.3456736300" lon="34.6776001621"><ele>165.63</ele><time>2026-08-23T07:08:50Z</time></trkpt><trkpt lat="59.3456354085" lon="34.6779205184"><ele>162.00</ele><time>2026-08-23T07:09:06Z</time></trkpt><trkpt lat="59.3456191476" lon="34.6782594826"><ele>159.67</ele><time>2026-08-23T07:09:22Z</time></trkpt><trkpt lat="59.3456133641" lon="34.6786629874"><ele>157.37</ele><time>2026-08-23T07:09:41Z</time></trkpt><trkpt lat="59.3456359953" lon="34.6788216569"><ele>156.78</ele><time>2026-08-23T07:09:48Z</time></trkpt><trkpt lat="59.3456508312" lon="34.6791910473"><ele>157.24</ele><time>2026-08-23T07:10:05Z</time></trkpt><trkpt lat="59.3456926569" lon="34.6795126610"><ele>157.54</ele><time>2026-08-23T07:10:19Z</time></trkpt><trkpt lat="59.3457004521" lon="34.6796606015"><ele>158.17</ele><time>2026-08-23T07:10:25Z</time></trkpt><trkpt lat="59.3457229156" lon="34.6798704844"><ele>158.93</ele><time>2026-08-23T07:10:34Z</time></trkpt><trkpt lat="59.3457402661" lon="34.6800714824"><ele>161.31</ele><time>2026-08-23T07:10:45Z</time></trkpt><trkpt lat="59.3457472231" lon="34.6801338438"><ele>162.01</ele><time>2026-08-23T07:10:48Z</time></trkpt><trkpt lat="59.3457510788" lon="34.6803663578"><ele>163.64</ele><time>2026-08-23T07:10:59Z</time></trkpt><trkpt lat="59.3457551859" lon="34.6805029828"><ele>164.48</ele><time>2026-08-23T07:11:09Z</time></trkpt><trkpt lat="59.3457837682" lon="34.6806254424"><ele>165.15</ele><time>2026-08-23T07:11:19Z</time></trkpt><trkpt lat="59.3457908090" lon="34.6806828585"><ele>165.28</ele><time>2026-08-23T07:11:22Z</time></trkpt><trkpt lat="59.3458442017" lon="34.6808469761"><ele>166.51</ele><time>2026-08-23T07:11:32Z</time></trkpt><trkpt lat="59.3458519969" lon="34.6809095051"><ele>167.03</ele><time>2026-08-23T07:11:35Z</time></trkpt><trkpt lat="59.3458785675" lon="34.6812075656"><ele>168.83</ele><time>2026-08-23T07:11:49Z</time></trkpt><trkpt lat="59.3459251709" lon="34.6813358925"><ele>170.14</ele><time>2026-08-23T07:11:56Z</time></trkpt><trkpt lat="59.3459495623" lon="34.6813895367"><ele>170.96</ele><time>2026-08-23T07:11:59Z</time></trkpt><trkpt lat="59.3459794018" lon="34.6814885270"><ele>171.36</ele><time>2026-08-23T07:12:04Z</time></trkpt><trkpt lat="59.3460378237" lon="34.6816362161"><ele>171.67</ele><time>2026-08-23T07:12:12Z</time></trkpt><trkpt lat="59.3461134285" lon="34.6818126552"><ele>172.19</ele><time>2026-08-23T07:12:23Z</time></trkpt><trkpt lat="59.3461589422" lon="34.6819093823"><ele>172.00</ele><time>2026-08-23T07:12:29Z</time></trkpt><trkpt lat="59.3462118320" lon="34.6821669582"><ele>171.49</ele><time>2026-08-23T07:12:41Z</time></trkpt><trkpt lat="59.3461670727" lon="34.6824412141"><ele>167.41</ele><time>2026-08-23T07:12:53Z</time></trkpt><trkpt lat="59.3460907135" lon="34.6825920045"><ele>165.23</ele><time>2026-08-23T07:13:03Z</time></trkpt><trkpt lat="59.3460204732" lon="34.6827194933"><ele>165.31</ele><time>2026-08-23T07:13:19Z</time></trkpt><trkpt lat="59.3459454551" lon="34.6827977803"><ele>164.94</ele><time>2026-08-23T07:13:38Z</time></trkpt><trkpt lat="59.3458273541" lon="34.6829354111"><ele>164.71</ele><time>2026-08-23T07:13:53Z</time></trkpt><trkpt lat="59.3457346503" lon="34.6830484830"><ele>166.21</ele><time>2026-08-23T07:14:09Z</time></trkpt><trkpt lat="59.3457213230" lon="34.6830737125"><ele>167.06</ele><time>2026-08-23T07:14:13Z</time></trkpt><trkpt lat="59.3456284516" lon="34.6832123492"><ele>167.65</ele><time>2026-08-23T07:14:30Z</time></trkpt><trkpt lat="59.3455905654" lon="34.6833175421"><ele>168.65</ele><time>2026-08-23T07:14:42Z</time></trkpt><trkpt lat="59.3456219975" lon="34.6833229903"><ele>168.47</ele><time>2026-08-23T07:14:57Z</time></trkpt><trkpt lat="59.3455237616" lon="34.6834298596"><ele>168.89</ele><time>2026-08-23T07:15:10Z</time></trkpt><trkpt lat="59.3453847896" lon="34.6836712584"><ele>166.73</ele><time>2026-08-23T07:15:28Z</time></trkpt><trkpt lat="59.3452860508" lon="34.6838865057"><ele>165.41</ele><time>2026-08-23T07:15:41Z</time></trkpt><trkpt lat="59.3452440575" lon="34.6839720849"><ele>165.28</ele><time>2026-08-23T07:15:46Z</time></trkpt><trkpt lat="59.3451816123" lon="34.6841554809"><ele>164.57</ele><time>2026-08-23T07:15:55Z</time></trkpt><trkpt lat="59.3450974580" lon="34.6843664534"><ele>161.69</ele><time>2026-08-23T07:16:09Z</time></trkpt><trkpt lat="59.3451521080" lon="34.6844475064"><ele>160.57</ele><time>2026-08-23T07:16:20Z</time></trkpt><trkpt lat="59.3452469911" lon="34.6846314892"><ele>159.85</ele><time>2026-08-23T07:16:34Z</time></trkpt><trkpt lat="59.3453731388" lon="34.6848376840"><ele>159.36</ele><time>2026-08-23T07:16:50Z</time></trkpt><trkpt lat="59.3454877194" lon="34.6850196552"><ele>159.02</ele><time>2026-08-23T07:17:06Z</time></trkpt><trkpt lat="59.3455886375" lon="34.6852617245"><ele>159.17</ele><time>2026-08-23T07:17:23Z</time></trkpt><trkpt lat="59.3456468079" lon="34.6853638999"><ele>158.81</ele><time>2026-08-23T07:17:37Z</time></trkpt><trkpt lat="59.3456825148" lon="34.6853263490"><ele>159.06</ele><time>2026-08-23T07:17:43Z</time></trkpt><trkpt lat="59.3457645737" lon="34.6853055619"><ele>158.99</ele><time>2026-08-23T07:17:55Z</time></trkpt><trkpt lat="59.3458273541" lon="34.6853241697"><ele>158.60</ele><time>2026-08-23T07:18:01Z</time></trkpt><trkpt lat="59.3459598720" lon="34.6853941586"><ele>158.52</ele><time>2026-08-23T07:18:16Z</time></trkpt><trkpt lat="59.3459976744" lon="34.6854237467"><ele>158.05</ele><time>2026-08-23T07:18:27Z</time></trkpt><trkpt lat="59.3459740374" lon="34.6853934880"><ele>158.08</ele><time>2026-08-23T07:18:47Z</time></trkpt><trkpt lat="59.3459624704" lon="34.6853740420"><ele>159.40</ele><time>2026-08-23T07:19:04Z</time></trkpt><trkpt lat="59.3460203893" lon="34.6853439510"><ele>159.80</ele><time>2026-08-23T07:19:11Z</time></trkpt><trkpt lat="59.3462169450" lon="34.6853266843"><ele>160.66</ele><time>2026-08-23T07:19:25Z</time></trkpt><trkpt lat="59.3463710882" lon="34.6855341364"><ele>160.87</ele><time>2026-08-23T07:19:44Z</time></trkpt><trkpt lat="59.3464450166" lon="34.6856638882"><ele>161.33</ele><time>2026-08-23T07:20:00Z</time></trkpt><trkpt lat="59.3465165980" lon="34.6857871022"><ele>160.86</ele><time>2026-08-23T07:20:14Z</time></trkpt><trkpt lat="59.3465882633" lon="34.6859000064"><ele>160.14</ele><time>2026-08-23T07:20:27Z</time></trkpt><trkpt lat="59.3467005808" lon="34.6860425826"><ele>159.83</ele><time>2026-08-23T07:20:43Z</time></trkpt><trkpt lat="59.3467931170" lon="34.6860911138"><ele>159.61</ele><time>2026-08-23T07:20:55Z</time></trkpt><trkpt lat="59.3468849827" lon="34.6860932093"><ele>157.02</ele><time>2026-08-23T07:21:07Z</time></trkpt><trkpt lat="59.3469796982" lon="34.6861427464"><ele>155.31</ele><time>2026-08-23T07:21:20Z</time></trkpt><trkpt lat="59.3470801134" lon="34.6861071233"><ele>149.15</ele><time>2026-08-23T07:21:36Z</time></trkpt><trkpt lat="59.3471523654" lon="34.6859658882"><ele>146.17</ele><time>2026-08-23T07:21:50Z</time></trkpt><trkpt lat="59.3471896648" lon="34.6858618688"><ele>146.58</ele><time>2026-08-23T07:22:02Z</time></trkpt><trkpt lat="59.3472759984" lon="34.6857080609"><ele>146.72</ele><time>2026-08-23T07:22:17Z</time></trkpt><trkpt lat="59.3473692052" lon="34.6855959110"><ele>146.01</ele><time>2026-08-23T07:22:31Z</time></trkpt><trkpt lat="59.3474582210" lon="34.6854781453"><ele>146.77</ele><time>2026-08-23T07:22:44Z</time></trkpt><trkpt lat="59.3475704547" lon="34.6854255069"><ele>146.91</ele><time>2026-08-23T07:22:59Z</time></trkpt><trkpt lat="59.3476685230" lon="34.6852964256"><ele>145.64</ele><time>2026-08-23T07:23:13Z</time></trkpt><trkpt lat="59.3478004541" lon="34.6852473076"><ele>145.69</ele><time>2026-08-23T07:23:28Z</time></trkpt><trkpt lat="59.3479278591" lon="34.6852706093"><ele>146.07</ele><time>2026-08-23T07:23:45Z</time></trkpt><trkpt lat="59.3479726184" lon="34.6852076612"><ele>147.88</ele><time>2026-08-23T07:23:59Z</time></trkpt><trkpt lat="59.3480716925" lon="34.6852577012"><ele>150.87</ele><time>2026-08-23T07:24:13Z</time></trkpt><trkpt lat="59.3481260072" lon="34.6854900476"><ele>152.54</ele><time>2026-08-23T07:24:28Z</time></trkpt><trkpt lat="59.3482284341" lon="34.6856550872"><ele>152.91</ele><time>2026-08-23T07:24:45Z</time></trkpt><trkpt lat="59.3483088166" lon="34.6856425144"><ele>153.28</ele><time>2026-08-23T07:24:58Z</time></trkpt><trkpt lat="59.3483541626" lon="34.6856274270"><ele>153.97</ele><time>2026-08-23T07:25:03Z</time></trkpt><trkpt lat="59.3484529015" lon="34.6856273431"><ele>154.75</ele><time>2026-08-23T07:25:16Z</time></trkpt><trkpt lat="59.3485383131" lon="34.6855932288"><ele>154.76</ele><time>2026-08-23T07:25:29Z</time></trkpt><trkpt lat="59.3486583419" lon="34.6855706815"><ele>155.43</ele><time>2026-08-23T07:25:43Z</time></trkpt><trkpt lat="59.3487637024" lon="34.6854881197"><ele>155.52</ele><time>2026-08-23T07:25:58Z</time></trkpt><trkpt lat="59.3488089647" lon="34.6854862757"><ele>154.09</ele><time>2026-08-23T07:26:11Z</time></trkpt><trkpt lat="59.3488672189" lon="34.6856808197"><ele>150.60</ele><time>2026-08-23T07:26:25Z</time></trkpt><trkpt lat="59.3489038479" lon="34.6857751999"><ele>149.94</ele><time>2026-08-23T07:26:41Z</time></trkpt><trkpt lat="59.3489010818" lon="34.6857564244"><ele>150.95</ele><time>2026-08-23T07:26:52Z</time></trkpt><trkpt lat="59.3489131518" lon="34.6857487131"><ele>151.45</ele><time>2026-08-23T07:26:54Z</time></trkpt><trkpt lat="59.3488880899" lon="34.6858079731"><ele>152.94</ele><time>2026-08-23T07:26:58Z</time></trkpt><trkpt lat="59.3489657063" lon="34.6858300176"><ele>153.87</ele><time>2026-08-23T07:27:15Z</time></trkpt><trkpt lat="59.3490703963" lon="34.6859211288"><ele>154.98</ele><time>2026-08-23T07:27:29Z</time></trkpt><trkpt lat="59.3491945323" lon="34.6858958155"><ele>155.10</ele><time>2026-08-23T07:27:45Z</time></trkpt><trkpt lat="59.3492681254" lon="34.6861009207"><ele>156.57</ele><time>2026-08-23T07:28:00Z</time></trkpt><trkpt lat="59.3492271379" lon="34.6862103045"><ele>156.76</ele><time>2026-08-23T07:28:13Z</time></trkpt><trkpt lat="59.3492211029" lon="34.6864983067"><ele>157.92</ele><time>2026-08-23T07:28:28Z</time></trkpt><trkpt lat="59.3492214382" lon="34.6865182556"><ele>157.94</ele><time>2026-08-23T07:28:29Z</time></trkpt><trkpt lat="59.3492429797" lon="34.6867528651"><ele>158.55</ele><time>2026-08-23T07:28:39Z</time></trkpt><trkpt lat="59.3492506910" lon="34.6868217643"><ele>158.46</ele><time>2026-08-23T07:28:42Z</time></trkpt><trkpt lat="59.3492634315" lon="34.6870831121"><ele>158.93</ele><time>2026-08-23T07:28:53Z</time></trkpt><trkpt lat="59.3492627610" lon="34.6871484071"><ele>158.72</ele><time>2026-08-23T07:28:56Z</time></trkpt><trkpt lat="59.3492705561" lon="34.6872123610"><ele>158.77</ele><time>2026-08-23T07:28:59Z</time></trkpt><trkpt lat="59.3492749147" lon="34.6873898897"><ele>158.97</ele><time>2026-08-23T07:29:06Z</time></trkpt><trkpt lat="59.3492788542" lon="34.6875143610"><ele>158.85</ele><time>2026-08-23T07:29:11Z</time></trkpt><trkpt lat="59.3492769264" lon="34.6876449510"><ele>158.67</ele><time>2026-08-23T07:29:17Z</time></trkpt><trkpt lat="59.3492632639" lon="34.6877600346"><ele>159.15</ele><time>2026-08-23T07:29:23Z</time></trkpt><trkpt lat="59.3492625933" lon="34.6880750265"><ele>158.28</ele><time>2026-08-23T07:29:37Z</time></trkpt><trkpt lat="59.3492499366" lon="34.6881861705"><ele>157.71</ele><time>2026-08-23T07:29:42Z</time></trkpt><trkpt lat="59.3492399622" lon="34.6883543953"><ele>156.46</ele><time>2026-08-23T07:29:50Z</time></trkpt><trkpt lat="59.3492525350" lon="34.6885586623"><ele>155.14</ele><time>2026-08-23T07:30:00Z</time></trkpt><trkpt lat="59.3492781837" lon="34.6889211796"><ele>152.04</ele><time>2026-08-23T07:30:14Z</time></trkpt><trkpt lat="59.3493287265" lon="34.6892117802"><ele>151.47</ele><time>2026-08-23T07:30:27Z</time></trkpt><trkpt lat="59.3493283074" lon="34.6893590502"><ele>151.92</ele><time>2026-08-23T07:30:40Z</time></trkpt><trkpt lat="59.3493067659" lon="34.6893502492"><ele>152.04</ele><time>2026-08-23T07:30:55Z</time></trkpt><trkpt lat="59.3493421376" lon="34.6893368382"><ele>151.45</ele><time>2026-08-23T07:31:09Z</time></trkpt><trkpt lat="59.3493330013" lon="34.6893458068"><ele>153.09</ele><time>2026-08-23T07:31:26Z</time></trkpt><trkpt lat="59.3493130524" lon="34.6893582959"><ele>155.22</ele><time>2026-08-23T07:31:45Z</time></trkpt><trkpt lat="59.3492983840" lon="34.6893671807"><ele>155.84</ele><time>2026-08-23T07:32:06Z</time></trkpt><trkpt lat="59.3492943607" lon="34.6893625706"><ele>156.28</ele><time>2026-08-23T07:32:27Z</time></trkpt><trkpt lat="59.3493043352" lon="34.6893645823"><ele>156.06</ele><time>2026-08-23T07:32:46Z</time></trkpt><trkpt lat="59.3493134715" lon="34.6893508360"><ele>155.68</ele><time>2026-08-23T07:33:07Z</time></trkpt><trkpt lat="59.3493113760" lon="34.6893901471"><ele>156.98</ele><time>2026-08-23T07:33:28Z</time></trkpt><trkpt lat="59.3493228592" lon="34.6893765684"><ele>158.27</ele><time>2026-08-23T07:33:45Z</time></trkpt><trkpt lat="59.3493216019" lon="34.6893622354"><ele>158.93</ele><time>2026-08-23T07:34:06Z</time></trkpt><trkpt lat="59.3493253738" lon="34.6893572062"><ele>159.09</ele><time>2026-08-23T07:34:26Z</time></trkpt><trkpt lat="59.3493292294" lon="34.6893545240"><ele>158.90</ele><time>2026-08-23T07:34:49Z</time></trkpt><trkpt lat="59.3493207637" lon="34.6893670131"><ele>159.08</ele><time>2026-08-23T07:35:11Z</time></trkpt><trkpt lat="59.3493191712" lon="34.6893743891"><ele>159.89</ele><time>2026-08-23T07:35:38Z</time></trkpt><trkpt lat="59.3493223563" lon="34.6893629897"><ele>160.31</ele><time>2026-08-23T07:36:00Z</time></trkpt><trkpt lat="59.3493197579" lon="34.6893691085"><ele>160.39</ele><time>2026-08-23T07:36:23Z</time></trkpt><trkpt lat="59.3493144773" lon="34.6893727966"><ele>160.17</ele><time>2026-08-23T07:36:42Z</time></trkpt><trkpt lat="59.3493244518" lon="34.6893527638"><ele>159.58</ele><time>2026-08-23T07:37:06Z</time></trkpt><trkpt lat="59.3493204284" lon="34.6893693600"><ele>159.68</ele><time>2026-08-23T07:37:29Z</time></trkpt><trkpt lat="59.3493217696" lon="34.6893688571"><ele>159.74</ele><time>2026-08-23T07:37:53Z</time></trkpt><trkpt lat="59.3493208475" lon="34.6893908177"><ele>160.57</ele><time>2026-08-23T07:38:18Z</time></trkpt><trkpt lat="59.3493244518" lon="34.6894003730"><ele>160.43</ele><time>2026-08-23T07:38:44Z</time></trkpt><trkpt lat="59.3493210152" lon="34.6893907338"><ele>161.12</ele><time>2026-08-23T07:39:00Z</time></trkpt><trkpt lat="59.3493183330" lon="34.6893748920"><ele>160.97</ele><time>2026-08-23T07:39:24Z</time></trkpt><trkpt lat="59.3493237812" lon="34.6893639956"><ele>160.85</ele><time>2026-08-23T07:39:44Z</time></trkpt><trkpt lat="59.3493338395" lon="34.6893736348"><ele>161.00</ele><time>2026-08-23T07:40:10Z</time></trkpt><trkpt lat="59.3493288103" lon="34.6893611457"><ele>160.99</ele><time>2026-08-23T07:40:31Z</time></trkpt><trkpt lat="59.3493214343" lon="34.6893620677"><ele>160.25</ele><time>2026-08-23T07:40:54Z</time></trkpt><trkpt lat="59.3493329175" lon="34.6893526800"><ele>161.23</ele><time>2026-08-23T07:41:15Z</time></trkpt><trkpt lat="59.3493304867" lon="34.6893603075"><ele>161.81</ele><time>2026-08-23T07:41:35Z</time></trkpt><trkpt lat="59.3493321631" lon="34.6893576253"><ele>161.01</ele><time>2026-08-23T07:41:54Z</time></trkpt><trkpt lat="59.3493243679" lon="34.6893691085"><ele>161.32</ele><time>2026-08-23T07:42:12Z</time></trkpt><trkpt lat="59.3493208475" lon="34.6893686894"><ele>161.55</ele><time>2026-08-23T07:42:38Z</time></trkpt><trkpt lat="59.3493169080" lon="34.6893788315"><ele>161.69</ele><time>2026-08-23T07:42:55Z</time></trkpt><trkpt lat="59.3493210990" lon="34.6893754788"><ele>161.95</ele><time>2026-08-23T07:43:20Z</time></trkpt><trkpt lat="59.3493159860" lon="34.6893740539"><ele>161.85</ele><time>2026-08-23T07:43:33Z</time></trkpt><trkpt lat="59.3493083585" lon="34.6893748082"><ele>162.15</ele><time>2026-08-23T07:43:52Z</time></trkpt><trkpt lat="59.3493109569" lon="34.6893811785"><ele>162.49</ele><time>2026-08-23T07:44:08Z</time></trkpt><trkpt lat="59.3493027426" lon="34.6893730480"><ele>162.32</ele><time>2026-08-23T07:44:29Z</time></trkpt><trkpt lat="59.3493082747" lon="34.6893899795"><ele>162.06</ele><time>2026-08-23T07:44:50Z</time></trkpt><trkpt lat="59.3493192550" lon="34.6893628221"><ele>161.94</ele><time>2026-08-23T07:45:05Z</time></trkpt><trkpt lat="59.3493092805" lon="34.6893758141"><ele>163.01</ele><time>2026-08-23T07:45:25Z</time></trkpt><trkpt lat="59.3493194226" lon="34.6893696114"><ele>162.94</ele><time>2026-08-23T07:45:48Z</time></trkpt><trkpt lat="59.3493317440" lon="34.6893675160"><ele>162.08</ele><time>2026-08-23T07:46:12Z</time></trkpt><trkpt lat="59.3493207637" lon="34.6893589664"><ele>162.62</ele><time>2026-08-23T07:46:34Z</time></trkpt><trkpt lat="59.3493193388" lon="34.6894117724"><ele>162.75</ele><time>2026-08-23T07:46:43Z</time></trkpt><trkpt lat="59.3493257090" lon="34.6894566156"><ele>162.76</ele><time>2026-08-23T07:46:45Z</time></trkpt><trkpt lat="59.3493656907" lon="34.6898108348"><ele>161.96</ele><time>2026-08-23T07:47:00Z</time></trkpt><trkpt lat="59.3494420499" lon="34.6901036147"><ele>159.92</ele><time>2026-08-23T07:47:14Z</time></trkpt><trkpt lat="59.3495314848" lon="34.6903569996"><ele>159.10</ele><time>2026-08-23T07:47:26Z</time></trkpt><trkpt lat="59.3495858833" lon="34.6905556507"><ele>158.27</ele><time>2026-08-23T07:47:35Z</time></trkpt><trkpt lat="59.3496520165" lon="34.6908939444"><ele>157.39</ele><time>2026-08-23T07:47:49Z</time></trkpt><trkpt lat="59.3496749830" lon="34.6911837906"><ele>157.65</ele><time>2026-08-23T07:48:01Z</time></trkpt><trkpt lat="59.3496915791" lon="34.6915055718"><ele>157.97</ele><time>2026-08-23T07:48:13Z</time></trkpt><trkpt lat="59.3497175630" lon="34.6918986831"><ele>158.01</ele><time>2026-08-23T07:48:28Z</time></trkpt><trkpt lat="59.3497117795" lon="34.6922292653"><ele>158.44</ele><time>2026-08-23T07:48:40Z</time></trkpt><trkpt lat="59.3497062474" lon="34.6924468596"><ele>159.05</ele><time>2026-08-23T07:48:49Z</time></trkpt><trkpt lat="59.3497143779" lon="34.6926101390"><ele>159.37</ele><time>2026-08-23T07:48:55Z</time></trkpt><trkpt lat="59.3497441337" lon="34.6929555573"><ele>159.23</ele><time>2026-08-23T07:49:09Z</time></trkpt><trkpt lat="59.3497498333" lon="34.6930277254"><ele>158.97</ele><time>2026-08-23T07:49:12Z</time></trkpt><trkpt lat="59.3497770745" lon="34.6933468245"><ele>157.43</ele><time>2026-08-23T07:49:24Z</time></trkpt><trkpt lat="59.3498211633" lon="34.6936633252"><ele>154.79</ele><time>2026-08-23T07:49:37Z</time></trkpt><trkpt lat="59.3498392683" lon="34.6939296182"><ele>152.68</ele><time>2026-08-23T07:49:50Z</time></trkpt><trkpt lat="59.3498714548" lon="34.6941290237"><ele>152.35</ele><time>2026-08-23T07:50:04Z</time></trkpt><trkpt lat="59.3498905655" lon="34.6944656409"><ele>151.11</ele><time>2026-08-23T07:50:17Z</time></trkpt><trkpt lat="59.3499015458" lon="34.6947887633"><ele>150.15</ele><time>2026-08-23T07:50:29Z</time></trkpt><trkpt lat="59.3499333132" lon="34.6951255482"><ele>149.59</ele><time>2026-08-23T07:50:42Z</time></trkpt><trkpt lat="59.3499483168" lon="34.6955104452"><ele>149.64</ele><time>2026-08-23T07:50:57Z</time></trkpt><trkpt lat="59.3499462213" lon="34.6957796719"><ele>150.02</ele><time>2026-08-23T07:51:08Z</time></trkpt><trkpt lat="59.3499672599" lon="34.6961450391"><ele>149.57</ele><time>2026-08-23T07:51:23Z</time></trkpt><trkpt lat="59.3500043079" lon="34.6963973343"><ele>149.62</ele><time>2026-08-23T07:51:33Z</time></trkpt><trkpt lat="59.3500298727" lon="34.6964923013"><ele>149.49</ele><time>2026-08-23T07:51:37Z</time></trkpt><trkpt lat="59.3500884622" lon="34.6966816485"><ele>148.50</ele><time>2026-08-23T07:51:46Z</time></trkpt><trkpt lat="59.3501209002" lon="34.6967540681"><ele>148.15</ele><time>2026-08-23T07:51:50Z</time></trkpt><trkpt lat="59.3501963373" lon="34.6969985683"><ele>148.11</ele><time>2026-08-23T07:52:01Z</time></trkpt><trkpt lat="59.3502659071" lon="34.6972748358"><ele>147.90</ele><time>2026-08-23T07:52:14Z</time></trkpt><trkpt lat="59.3503122590" lon="34.6975252032"><ele>146.46</ele><time>2026-08-23T07:52:26Z</time></trkpt><trkpt lat="59.3503444456" lon="34.6978066675"><ele>145.54</ele><time>2026-08-23T07:52:38Z</time></trkpt><trkpt lat="59.3503845949" lon="34.6982759703"><ele>146.28</ele><time>2026-08-23T07:52:53Z</time></trkpt><trkpt lat="59.3504344672" lon="34.6986166947"><ele>148.62</ele><time>2026-08-23T07:53:06Z</time></trkpt><trkpt lat="59.3504941463" lon="34.6988876816"><ele>150.03</ele><time>2026-08-23T07:53:18Z</time></trkpt><trkpt lat="59.3505334575" lon="34.6992050204"><ele>150.77</ele><time>2026-08-23T07:53:30Z</time></trkpt><trkpt lat="59.3505760375" lon="34.6994843893"><ele>152.11</ele><time>2026-08-23T07:53:41Z</time></trkpt><trkpt lat="59.3506646343" lon="34.6998201683"><ele>152.82</ele><time>2026-08-23T07:53:56Z</time></trkpt><trkpt lat="59.3507542368" lon="34.7001787461"><ele>153.25</ele><time>2026-08-23T07:54:12Z</time></trkpt><trkpt lat="59.3507772032" lon="34.7003077436"><ele>152.61</ele><time>2026-08-23T07:54:23Z</time></trkpt><trkpt lat="59.3507961463" lon="34.7004084103"><ele>153.37</ele><time>2026-08-23T07:54:28Z</time></trkpt><trkpt lat="59.3508610222" lon="34.7007356398"><ele>154.51</ele><time>2026-08-23T07:54:42Z</time></trkpt><trkpt lat="59.3509204499" lon="34.7011286672"><ele>154.17</ele><time>2026-08-23T07:54:58Z</time></trkpt><trkpt lat="59.3509855773" lon="34.7013848182"><ele>154.03</ele><time>2026-08-23T07:55:11Z</time></trkpt><trkpt lat="59.3509932049" lon="34.7017609980"><ele>154.96</ele><time>2026-08-23T07:55:27Z</time></trkpt><trkpt lat="59.3510059454" lon="34.7020474076"><ele>154.47</ele><time>2026-08-23T07:55:40Z</time></trkpt><trkpt lat="59.3510112260" lon="34.7020647582"><ele>153.41</ele><time>2026-08-23T07:55:53Z</time></trkpt><trkpt lat="59.3510279898" lon="34.7020623274"><ele>153.32</ele><time>2026-08-23T07:56:10Z</time></trkpt><trkpt lat="59.3510358687" lon="34.7020465694"><ele>152.88</ele><time>2026-08-23T07:56:19Z</time></trkpt><trkpt lat="59.3510274030" lon="34.7020524368"><ele>152.98</ele><time>2026-08-23T07:56:36Z</time></trkpt><trkpt lat="59.3510212004" lon="34.7020649258"><ele>153.09</ele><time>2026-08-23T07:56:48Z</time></trkpt></trkseg>
</trk></gpx>